<?xml version="1.0" encoding="UTF-8" standalone="no" ?>
<gpx xmlns="http://www.topografix.com/GPX/1/1" xmlns:xsi="http://www.w3.org/2001/XMLSchema-instance" xsi:schemaLocation="http://www.topografix.com/GPX/1/1 http://www.topografix.com/GPX/1/1/gpx.xsd" version="1.1" creator="VisuGPX - https://www.visugpx.com">
  <metadata>
    <name>Le tour des quatre lacs</name>
  </metadata>
  <wpt lat="46.61631" lon="5.8912">
    <ele>783</ele>
    <name><![CDATA[Lac de la Motte]]></name>
  </wpt>
  <wpt lat="46.6183" lon="5.88773">
    <ele>777</ele>
    <name><![CDATA[Parking Lac de la Motte]]></name>
  </wpt>
  <wpt lat="46.61931" lon="5.88122">
    <ele>779</ele>
    <name><![CDATA[La Fromagerie]]></name>
  </wpt>
  <wpt lat="46.6335" lon="5.89317">
    <ele>775</ele>
    <name><![CDATA[Carrefour le Frasnois]]></name>
  </wpt>
  <wpt lat="46.63453" lon="5.89735">
    <ele>784</ele>
    <name><![CDATA[Le Frasnois]]></name>
  </wpt>
  <wpt lat="46.63891" lon="5.90017">
    <ele>797</ele>
    <name><![CDATA[Carrefour vierge]]></name>
  </wpt>
  <wpt lat="46.64057" lon="5.90765">
    <ele>761</ele>
    <name><![CDATA[Camping]]></name>
  </wpt>
  <wpt lat="46.63772" lon="5.91297">
    <ele>785</ele>
    <name><![CDATA[Carrefour chemin]]></name>
  </wpt>
  <trk>
    <name><![CDATA[Le tour des quatre lacs]]></name>
    <trkseg>
      <trkpt lat="46.63359" lon="5.91953">
        <ele>785</ele>
        <time>2021-06-11T15:23:30+02:00</time>
      </trkpt>
      <trkpt lat="46.63359" lon="5.91953">
        <ele>785</ele>
        <time>2021-06-11T15:23:35+02:00</time>
      </trkpt>
      <trkpt lat="46.63359" lon="5.91951">
        <ele>785</ele>
        <time>2021-06-11T15:23:40+02:00</time>
      </trkpt>
      <trkpt lat="46.63357" lon="5.91947">
        <ele>784</ele>
        <time>2021-06-11T15:23:45+02:00</time>
      </trkpt>
      <trkpt lat="46.63351" lon="5.91943">
        <ele>784</ele>
        <time>2021-06-11T15:23:50+02:00</time>
      </trkpt>
      <trkpt lat="46.63343" lon="5.91937">
        <ele>783</ele>
        <time>2021-06-11T15:23:55+02:00</time>
      </trkpt>
      <trkpt lat="46.6333" lon="5.91923">
        <ele>781</ele>
        <time>2021-06-11T15:24:00+02:00</time>
      </trkpt>
      <trkpt lat="46.63322" lon="5.91915">
        <ele>781</ele>
        <time>2021-06-11T15:24:05+02:00</time>
      </trkpt>
      <trkpt lat="46.63313" lon="5.91909">
        <ele>781</ele>
        <time>2021-06-11T15:24:10+02:00</time>
      </trkpt>
      <trkpt lat="46.63311" lon="5.91902">
        <ele>781</ele>
        <time>2021-06-11T15:24:15+02:00</time>
      </trkpt>
      <trkpt lat="46.6331" lon="5.91901">
        <ele>781</ele>
        <time>2021-06-11T15:24:20+02:00</time>
      </trkpt>
      <trkpt lat="46.6331" lon="5.919">
        <ele>781</ele>
        <time>2021-06-11T15:24:25+02:00</time>
      </trkpt>
      <trkpt lat="46.63304" lon="5.919">
        <ele>782</ele>
        <time>2021-06-11T15:24:30+02:00</time>
      </trkpt>
      <trkpt lat="46.63302" lon="5.91897">
        <ele>782</ele>
        <time>2021-06-11T15:24:35+02:00</time>
      </trkpt>
      <trkpt lat="46.63295" lon="5.91884">
        <ele>781</ele>
        <time>2021-06-11T15:24:40+02:00</time>
      </trkpt>
      <trkpt lat="46.63289" lon="5.91876">
        <ele>781</ele>
        <time>2021-06-11T15:24:45+02:00</time>
      </trkpt>
      <trkpt lat="46.63286" lon="5.91874">
        <ele>781</ele>
        <time>2021-06-11T15:24:50+02:00</time>
      </trkpt>
      <trkpt lat="46.63281" lon="5.91871">
        <ele>781</ele>
        <time>2021-06-11T15:24:55+02:00</time>
      </trkpt>
      <trkpt lat="46.6328" lon="5.91867">
        <ele>781</ele>
        <time>2021-06-11T15:25:00+02:00</time>
      </trkpt>
      <trkpt lat="46.63275" lon="5.91856">
        <ele>780</ele>
        <time>2021-06-11T15:25:05+02:00</time>
      </trkpt>
      <trkpt lat="46.63269" lon="5.9185">
        <ele>780</ele>
        <time>2021-06-11T15:25:10+02:00</time>
      </trkpt>
      <trkpt lat="46.63263" lon="5.91849">
        <ele>780</ele>
        <time>2021-06-11T15:25:15+02:00</time>
      </trkpt>
      <trkpt lat="46.63259" lon="5.91852">
        <ele>780</ele>
        <time>2021-06-11T15:25:20+02:00</time>
      </trkpt>
      <trkpt lat="46.63256" lon="5.9185">
        <ele>780</ele>
        <time>2021-06-11T15:25:25+02:00</time>
      </trkpt>
      <trkpt lat="46.6325" lon="5.91853">
        <ele>780</ele>
        <time>2021-06-11T15:25:30+02:00</time>
      </trkpt>
      <trkpt lat="46.63247" lon="5.91855">
        <ele>781</ele>
        <time>2021-06-11T15:25:35+02:00</time>
      </trkpt>
      <trkpt lat="46.63233" lon="5.91861">
        <ele>785</ele>
        <time>2021-06-11T15:25:40+02:00</time>
      </trkpt>
      <trkpt lat="46.63225" lon="5.91864">
        <ele>788</ele>
        <time>2021-06-11T15:25:45+02:00</time>
      </trkpt>
      <trkpt lat="46.63217" lon="5.91861">
        <ele>789</ele>
        <time>2021-06-11T15:25:50+02:00</time>
      </trkpt>
      <trkpt lat="46.63214" lon="5.91859">
        <ele>789</ele>
        <time>2021-06-11T15:25:55+02:00</time>
      </trkpt>
      <trkpt lat="46.6321" lon="5.91856">
        <ele>790</ele>
        <time>2021-06-11T15:26:00+02:00</time>
      </trkpt>
      <trkpt lat="46.632" lon="5.91845">
        <ele>789</ele>
        <time>2021-06-11T15:26:05+02:00</time>
      </trkpt>
      <trkpt lat="46.63189" lon="5.91834">
        <ele>789</ele>
        <time>2021-06-11T15:26:10+02:00</time>
      </trkpt>
      <trkpt lat="46.63177" lon="5.91823">
        <ele>789</ele>
        <time>2021-06-11T15:26:15+02:00</time>
      </trkpt>
      <trkpt lat="46.63152" lon="5.91789">
        <ele>789</ele>
        <time>2021-06-11T15:26:20+02:00</time>
      </trkpt>
      <trkpt lat="46.63144" lon="5.91779">
        <ele>790</ele>
        <time>2021-06-11T15:26:25+02:00</time>
      </trkpt>
      <trkpt lat="46.63143" lon="5.91775">
        <ele>789</ele>
        <time>2021-06-11T15:26:30+02:00</time>
      </trkpt>
      <trkpt lat="46.63136" lon="5.91761">
        <ele>788</ele>
        <time>2021-06-11T15:26:35+02:00</time>
      </trkpt>
      <trkpt lat="46.63129" lon="5.91749">
        <ele>787</ele>
        <time>2021-06-11T15:26:40+02:00</time>
      </trkpt>
      <trkpt lat="46.63124" lon="5.91739">
        <ele>788</ele>
        <time>2021-06-11T15:26:45+02:00</time>
      </trkpt>
      <trkpt lat="46.63112" lon="5.91724">
        <ele>789</ele>
        <time>2021-06-11T15:26:50+02:00</time>
      </trkpt>
      <trkpt lat="46.631" lon="5.91706">
        <ele>789</ele>
        <time>2021-06-11T15:26:55+02:00</time>
      </trkpt>
      <trkpt lat="46.63094" lon="5.91697">
        <ele>788</ele>
        <time>2021-06-11T15:27:00+02:00</time>
      </trkpt>
      <trkpt lat="46.63086" lon="5.91682">
        <ele>786</ele>
        <time>2021-06-11T15:27:05+02:00</time>
      </trkpt>
      <trkpt lat="46.63084" lon="5.91679">
        <ele>786</ele>
        <time>2021-06-11T15:27:10+02:00</time>
      </trkpt>
      <trkpt lat="46.63079" lon="5.91672">
        <ele>787</ele>
        <time>2021-06-11T15:27:15+02:00</time>
      </trkpt>
      <trkpt lat="46.63071" lon="5.9166">
        <ele>790</ele>
        <time>2021-06-11T15:27:20+02:00</time>
      </trkpt>
      <trkpt lat="46.6307" lon="5.91659">
        <ele>790</ele>
        <time>2021-06-11T15:27:25+02:00</time>
      </trkpt>
      <trkpt lat="46.63064" lon="5.91645">
        <ele>791</ele>
        <time>2021-06-11T15:27:30+02:00</time>
      </trkpt>
      <trkpt lat="46.6306" lon="5.91637">
        <ele>792</ele>
        <time>2021-06-11T15:27:35+02:00</time>
      </trkpt>
      <trkpt lat="46.63053" lon="5.91625">
        <ele>795</ele>
        <time>2021-06-11T15:27:40+02:00</time>
      </trkpt>
      <trkpt lat="46.63047" lon="5.91617">
        <ele>796</ele>
        <time>2021-06-11T15:27:45+02:00</time>
      </trkpt>
      <trkpt lat="46.63042" lon="5.91608">
        <ele>797</ele>
        <time>2021-06-11T15:27:50+02:00</time>
      </trkpt>
      <trkpt lat="46.63034" lon="5.91595">
        <ele>797</ele>
        <time>2021-06-11T15:27:55+02:00</time>
      </trkpt>
      <trkpt lat="46.6303" lon="5.91587">
        <ele>797</ele>
        <time>2021-06-11T15:28:00+02:00</time>
      </trkpt>
      <trkpt lat="46.63024" lon="5.91579">
        <ele>797</ele>
        <time>2021-06-11T15:28:05+02:00</time>
      </trkpt>
      <trkpt lat="46.63017" lon="5.91568">
        <ele>797</ele>
        <time>2021-06-11T15:28:10+02:00</time>
      </trkpt>
      <trkpt lat="46.63009" lon="5.91558">
        <ele>797</ele>
        <time>2021-06-11T15:28:15+02:00</time>
      </trkpt>
      <trkpt lat="46.63008" lon="5.91557">
        <ele>797</ele>
        <time>2021-06-11T15:28:20+02:00</time>
      </trkpt>
      <trkpt lat="46.63002" lon="5.9155">
        <ele>796</ele>
        <time>2021-06-11T15:28:25+02:00</time>
      </trkpt>
      <trkpt lat="46.62992" lon="5.91535">
        <ele>796</ele>
        <time>2021-06-11T15:28:30+02:00</time>
      </trkpt>
      <trkpt lat="46.62989" lon="5.91529">
        <ele>796</ele>
        <time>2021-06-11T15:28:35+02:00</time>
      </trkpt>
      <trkpt lat="46.62986" lon="5.91528">
        <ele>796</ele>
        <time>2021-06-11T15:28:40+02:00</time>
      </trkpt>
      <trkpt lat="46.62986" lon="5.91528">
        <ele>796</ele>
        <time>2021-06-11T15:28:45+02:00</time>
      </trkpt>
      <trkpt lat="46.62984" lon="5.91524">
        <ele>796</ele>
        <time>2021-06-11T15:28:50+02:00</time>
      </trkpt>
      <trkpt lat="46.62982" lon="5.91519">
        <ele>795</ele>
        <time>2021-06-11T15:28:55+02:00</time>
      </trkpt>
      <trkpt lat="46.62982" lon="5.91519">
        <ele>795</ele>
        <time>2021-06-11T15:29:00+02:00</time>
      </trkpt>
      <trkpt lat="46.62975" lon="5.9151">
        <ele>795</ele>
        <time>2021-06-11T15:29:05+02:00</time>
      </trkpt>
      <trkpt lat="46.62971" lon="5.91503">
        <ele>794</ele>
        <time>2021-06-11T15:29:10+02:00</time>
      </trkpt>
      <trkpt lat="46.62963" lon="5.91488">
        <ele>794</ele>
        <time>2021-06-11T15:29:15+02:00</time>
      </trkpt>
      <trkpt lat="46.62951" lon="5.9147">
        <ele>794</ele>
        <time>2021-06-11T15:29:20+02:00</time>
      </trkpt>
      <trkpt lat="46.62945" lon="5.91458">
        <ele>794</ele>
        <time>2021-06-11T15:29:25+02:00</time>
      </trkpt>
      <trkpt lat="46.62923" lon="5.91431">
        <ele>792</ele>
        <time>2021-06-11T15:29:30+02:00</time>
      </trkpt>
      <trkpt lat="46.62912" lon="5.91419">
        <ele>793</ele>
        <time>2021-06-11T15:29:35+02:00</time>
      </trkpt>
      <trkpt lat="46.62898" lon="5.91394">
        <ele>793</ele>
        <time>2021-06-11T15:29:40+02:00</time>
      </trkpt>
      <trkpt lat="46.62887" lon="5.91379">
        <ele>794</ele>
        <time>2021-06-11T15:29:45+02:00</time>
      </trkpt>
      <trkpt lat="46.62872" lon="5.91366">
        <ele>796</ele>
        <time>2021-06-11T15:29:50+02:00</time>
      </trkpt>
      <trkpt lat="46.62858" lon="5.91338">
        <ele>790</ele>
        <time>2021-06-11T15:29:55+02:00</time>
      </trkpt>
      <trkpt lat="46.6285" lon="5.91319">
        <ele>788</ele>
        <time>2021-06-11T15:30:00+02:00</time>
      </trkpt>
      <trkpt lat="46.62847" lon="5.91315">
        <ele>788</ele>
        <time>2021-06-11T15:30:05+02:00</time>
      </trkpt>
      <trkpt lat="46.62839" lon="5.91308">
        <ele>789</ele>
        <time>2021-06-11T15:30:10+02:00</time>
      </trkpt>
      <trkpt lat="46.62827" lon="5.913">
        <ele>791</ele>
        <time>2021-06-11T15:30:15+02:00</time>
      </trkpt>
      <trkpt lat="46.62821" lon="5.91297">
        <ele>792</ele>
        <time>2021-06-11T15:30:20+02:00</time>
      </trkpt>
      <trkpt lat="46.62812" lon="5.91291">
        <ele>794</ele>
        <time>2021-06-11T15:30:25+02:00</time>
      </trkpt>
      <trkpt lat="46.62803" lon="5.91287">
        <ele>796</ele>
        <time>2021-06-11T15:30:30+02:00</time>
      </trkpt>
      <trkpt lat="46.62795" lon="5.91279">
        <ele>797</ele>
        <time>2021-06-11T15:30:35+02:00</time>
      </trkpt>
      <trkpt lat="46.62787" lon="5.91274">
        <ele>798</ele>
        <time>2021-06-11T15:30:40+02:00</time>
      </trkpt>
      <trkpt lat="46.62774" lon="5.91266">
        <ele>798</ele>
        <time>2021-06-11T15:30:45+02:00</time>
      </trkpt>
      <trkpt lat="46.62765" lon="5.91256">
        <ele>796</ele>
        <time>2021-06-11T15:30:50+02:00</time>
      </trkpt>
      <trkpt lat="46.62758" lon="5.9125">
        <ele>795</ele>
        <time>2021-06-11T15:30:55+02:00</time>
      </trkpt>
      <trkpt lat="46.62754" lon="5.91248">
        <ele>796</ele>
        <time>2021-06-11T15:31:00+02:00</time>
      </trkpt>
      <trkpt lat="46.62745" lon="5.91241">
        <ele>797</ele>
        <time>2021-06-11T15:31:05+02:00</time>
      </trkpt>
      <trkpt lat="46.62734" lon="5.91228">
        <ele>798</ele>
        <time>2021-06-11T15:31:10+02:00</time>
      </trkpt>
      <trkpt lat="46.62724" lon="5.91216">
        <ele>799</ele>
        <time>2021-06-11T15:31:15+02:00</time>
      </trkpt>
      <trkpt lat="46.62713" lon="5.91205">
        <ele>800</ele>
        <time>2021-06-11T15:31:20+02:00</time>
      </trkpt>
      <trkpt lat="46.62706" lon="5.91199">
        <ele>800</ele>
        <time>2021-06-11T15:31:25+02:00</time>
      </trkpt>
      <trkpt lat="46.62699" lon="5.91188">
        <ele>799</ele>
        <time>2021-06-11T15:31:30+02:00</time>
      </trkpt>
      <trkpt lat="46.62691" lon="5.91177">
        <ele>798</ele>
        <time>2021-06-11T15:31:35+02:00</time>
      </trkpt>
      <trkpt lat="46.62684" lon="5.91171">
        <ele>798</ele>
        <time>2021-06-11T15:31:40+02:00</time>
      </trkpt>
      <trkpt lat="46.62676" lon="5.9116">
        <ele>797</ele>
        <time>2021-06-11T15:31:45+02:00</time>
      </trkpt>
      <trkpt lat="46.62673" lon="5.91157">
        <ele>797</ele>
        <time>2021-06-11T15:31:50+02:00</time>
      </trkpt>
      <trkpt lat="46.62665" lon="5.9115">
        <ele>798</ele>
        <time>2021-06-11T15:31:55+02:00</time>
      </trkpt>
      <trkpt lat="46.62658" lon="5.9114">
        <ele>800</ele>
        <time>2021-06-11T15:32:00+02:00</time>
      </trkpt>
      <trkpt lat="46.62652" lon="5.91124">
        <ele>799</ele>
        <time>2021-06-11T15:32:05+02:00</time>
      </trkpt>
      <trkpt lat="46.62646" lon="5.91114">
        <ele>800</ele>
        <time>2021-06-11T15:32:10+02:00</time>
      </trkpt>
      <trkpt lat="46.6264" lon="5.91104">
        <ele>802</ele>
        <time>2021-06-11T15:32:15+02:00</time>
      </trkpt>
      <trkpt lat="46.62633" lon="5.91099">
        <ele>805</ele>
        <time>2021-06-11T15:32:20+02:00</time>
      </trkpt>
      <trkpt lat="46.62622" lon="5.91088">
        <ele>810</ele>
        <time>2021-06-11T15:32:25+02:00</time>
      </trkpt>
      <trkpt lat="46.62613" lon="5.9108">
        <ele>816</ele>
        <time>2021-06-11T15:32:30+02:00</time>
      </trkpt>
      <trkpt lat="46.626" lon="5.91069">
        <ele>825</ele>
        <time>2021-06-11T15:32:35+02:00</time>
      </trkpt>
      <trkpt lat="46.6259" lon="5.91061">
        <ele>833</ele>
        <time>2021-06-11T15:32:40+02:00</time>
      </trkpt>
      <trkpt lat="46.62589" lon="5.9106">
        <ele>833</ele>
        <time>2021-06-11T15:32:45+02:00</time>
      </trkpt>
      <trkpt lat="46.62582" lon="5.91052">
        <ele>837</ele>
        <time>2021-06-11T15:32:50+02:00</time>
      </trkpt>
      <trkpt lat="46.62577" lon="5.91046">
        <ele>839</ele>
        <time>2021-06-11T15:32:55+02:00</time>
      </trkpt>
      <trkpt lat="46.62574" lon="5.91042">
        <ele>840</ele>
        <time>2021-06-11T15:33:00+02:00</time>
      </trkpt>
      <trkpt lat="46.62563" lon="5.91031">
        <ele>842</ele>
        <time>2021-06-11T15:33:05+02:00</time>
      </trkpt>
      <trkpt lat="46.62556" lon="5.91022">
        <ele>843</ele>
        <time>2021-06-11T15:33:10+02:00</time>
      </trkpt>
      <trkpt lat="46.62546" lon="5.91009">
        <ele>843</ele>
        <time>2021-06-11T15:33:15+02:00</time>
      </trkpt>
      <trkpt lat="46.6254" lon="5.91003">
        <ele>842</ele>
        <time>2021-06-11T15:33:20+02:00</time>
      </trkpt>
      <trkpt lat="46.62534" lon="5.90993">
        <ele>839</ele>
        <time>2021-06-11T15:33:25+02:00</time>
      </trkpt>
      <trkpt lat="46.62529" lon="5.90987">
        <ele>837</ele>
        <time>2021-06-11T15:33:30+02:00</time>
      </trkpt>
      <trkpt lat="46.62521" lon="5.90977">
        <ele>833</ele>
        <time>2021-06-11T15:33:35+02:00</time>
      </trkpt>
      <trkpt lat="46.62515" lon="5.90964">
        <ele>828</ele>
        <time>2021-06-11T15:33:40+02:00</time>
      </trkpt>
      <trkpt lat="46.62506" lon="5.90955">
        <ele>826</ele>
        <time>2021-06-11T15:33:45+02:00</time>
      </trkpt>
      <trkpt lat="46.62503" lon="5.90952">
        <ele>825</ele>
        <time>2021-06-11T15:33:50+02:00</time>
      </trkpt>
      <trkpt lat="46.62496" lon="5.90944">
        <ele>848</ele>
        <time>2021-06-11T15:33:55+02:00</time>
      </trkpt>
      <trkpt lat="46.62486" lon="5.9093">
        <ele>848</ele>
        <time>2021-06-11T15:34:00+02:00</time>
      </trkpt>
      <trkpt lat="46.62481" lon="5.90924">
        <ele>848</ele>
        <time>2021-06-11T15:34:05+02:00</time>
      </trkpt>
      <trkpt lat="46.62472" lon="5.9091">
        <ele>810</ele>
        <time>2021-06-11T15:34:10+02:00</time>
      </trkpt>
      <trkpt lat="46.62466" lon="5.90902">
        <ele>810</ele>
        <time>2021-06-11T15:34:15+02:00</time>
      </trkpt>
      <trkpt lat="46.62456" lon="5.90894">
        <ele>810</ele>
        <time>2021-06-11T15:34:20+02:00</time>
      </trkpt>
      <trkpt lat="46.62454" lon="5.90893">
        <ele>810</ele>
        <time>2021-06-11T15:34:25+02:00</time>
      </trkpt>
      <trkpt lat="46.62444" lon="5.90887">
        <ele>810</ele>
        <time>2021-06-11T15:34:30+02:00</time>
      </trkpt>
      <trkpt lat="46.62435" lon="5.90881">
        <ele>810</ele>
        <time>2021-06-11T15:34:35+02:00</time>
      </trkpt>
      <trkpt lat="46.62426" lon="5.90874">
        <ele>810</ele>
        <time>2021-06-11T15:34:40+02:00</time>
      </trkpt>
      <trkpt lat="46.62412" lon="5.90863">
        <ele>819</ele>
        <time>2021-06-11T15:34:45+02:00</time>
      </trkpt>
      <trkpt lat="46.62405" lon="5.90857">
        <ele>819</ele>
        <time>2021-06-11T15:34:50+02:00</time>
      </trkpt>
      <trkpt lat="46.62393" lon="5.90847">
        <ele>819</ele>
        <time>2021-06-11T15:34:55+02:00</time>
      </trkpt>
      <trkpt lat="46.62381" lon="5.90838">
        <ele>819</ele>
        <time>2021-06-11T15:35:00+02:00</time>
      </trkpt>
      <trkpt lat="46.62371" lon="5.90825">
        <ele>800</ele>
        <time>2021-06-11T15:35:05+02:00</time>
      </trkpt>
      <trkpt lat="46.62358" lon="5.90812">
        <ele>801</ele>
        <time>2021-06-11T15:35:10+02:00</time>
      </trkpt>
      <trkpt lat="46.62352" lon="5.90805">
        <ele>801</ele>
        <time>2021-06-11T15:35:15+02:00</time>
      </trkpt>
      <trkpt lat="46.62344" lon="5.90797">
        <ele>801</ele>
        <time>2021-06-11T15:35:20+02:00</time>
      </trkpt>
      <trkpt lat="46.62335" lon="5.9079">
        <ele>800</ele>
        <time>2021-06-11T15:35:25+02:00</time>
      </trkpt>
      <trkpt lat="46.62328" lon="5.90785">
        <ele>802</ele>
        <time>2021-06-11T15:35:30+02:00</time>
      </trkpt>
      <trkpt lat="46.62318" lon="5.90777">
        <ele>804</ele>
        <time>2021-06-11T15:35:35+02:00</time>
      </trkpt>
      <trkpt lat="46.62313" lon="5.90771">
        <ele>804</ele>
        <time>2021-06-11T15:35:40+02:00</time>
      </trkpt>
      <trkpt lat="46.62305" lon="5.90763">
        <ele>804</ele>
        <time>2021-06-11T15:35:45+02:00</time>
      </trkpt>
      <trkpt lat="46.62291" lon="5.90747">
        <ele>804</ele>
        <time>2021-06-11T15:35:50+02:00</time>
      </trkpt>
      <trkpt lat="46.62285" lon="5.90735">
        <ele>804</ele>
        <time>2021-06-11T15:35:55+02:00</time>
      </trkpt>
      <trkpt lat="46.62281" lon="5.90729">
        <ele>805</ele>
        <time>2021-06-11T15:36:00+02:00</time>
      </trkpt>
      <trkpt lat="46.62272" lon="5.90718">
        <ele>805</ele>
        <time>2021-06-11T15:36:05+02:00</time>
      </trkpt>
      <trkpt lat="46.62267" lon="5.90709">
        <ele>805</ele>
        <time>2021-06-11T15:36:10+02:00</time>
      </trkpt>
      <trkpt lat="46.62261" lon="5.90704">
        <ele>806</ele>
        <time>2021-06-11T15:36:15+02:00</time>
      </trkpt>
      <trkpt lat="46.62248" lon="5.90689">
        <ele>806</ele>
        <time>2021-06-11T15:36:20+02:00</time>
      </trkpt>
      <trkpt lat="46.62241" lon="5.90682">
        <ele>808</ele>
        <time>2021-06-11T15:36:25+02:00</time>
      </trkpt>
      <trkpt lat="46.62228" lon="5.90666">
        <ele>810</ele>
        <time>2021-06-11T15:36:30+02:00</time>
      </trkpt>
      <trkpt lat="46.62211" lon="5.90635">
        <ele>809</ele>
        <time>2021-06-11T15:36:35+02:00</time>
      </trkpt>
      <trkpt lat="46.62204" lon="5.9062">
        <ele>808</ele>
        <time>2021-06-11T15:36:40+02:00</time>
      </trkpt>
      <trkpt lat="46.62198" lon="5.90604">
        <ele>805</ele>
        <time>2021-06-11T15:36:45+02:00</time>
      </trkpt>
      <trkpt lat="46.62193" lon="5.90585">
        <ele>801</ele>
        <time>2021-06-11T15:36:50+02:00</time>
      </trkpt>
      <trkpt lat="46.6219" lon="5.90581">
        <ele>802</ele>
        <time>2021-06-11T15:36:55+02:00</time>
      </trkpt>
      <trkpt lat="46.62178" lon="5.90568">
        <ele>804</ele>
        <time>2021-06-11T15:37:00+02:00</time>
      </trkpt>
      <trkpt lat="46.62169" lon="5.90553">
        <ele>805</ele>
        <time>2021-06-11T15:37:05+02:00</time>
      </trkpt>
      <trkpt lat="46.62162" lon="5.90537">
        <ele>805</ele>
        <time>2021-06-11T15:37:10+02:00</time>
      </trkpt>
      <trkpt lat="46.62155" lon="5.90522">
        <ele>805</ele>
        <time>2021-06-11T15:37:15+02:00</time>
      </trkpt>
      <trkpt lat="46.62151" lon="5.90511">
        <ele>804</ele>
        <time>2021-06-11T15:37:20+02:00</time>
      </trkpt>
      <trkpt lat="46.62141" lon="5.90497">
        <ele>804</ele>
        <time>2021-06-11T15:37:25+02:00</time>
      </trkpt>
      <trkpt lat="46.62133" lon="5.90481">
        <ele>805</ele>
        <time>2021-06-11T15:37:30+02:00</time>
      </trkpt>
      <trkpt lat="46.62127" lon="5.9047">
        <ele>805</ele>
        <time>2021-06-11T15:37:35+02:00</time>
      </trkpt>
      <trkpt lat="46.62122" lon="5.90464">
        <ele>806</ele>
        <time>2021-06-11T15:37:40+02:00</time>
      </trkpt>
      <trkpt lat="46.62115" lon="5.90453">
        <ele>806</ele>
        <time>2021-06-11T15:37:45+02:00</time>
      </trkpt>
      <trkpt lat="46.62109" lon="5.90438">
        <ele>804</ele>
        <time>2021-06-11T15:37:50+02:00</time>
      </trkpt>
      <trkpt lat="46.62099" lon="5.90422">
        <ele>803</ele>
        <time>2021-06-11T15:37:55+02:00</time>
      </trkpt>
      <trkpt lat="46.62093" lon="5.90415">
        <ele>803</ele>
        <time>2021-06-11T15:38:00+02:00</time>
      </trkpt>
      <trkpt lat="46.62082" lon="5.90404">
        <ele>804</ele>
        <time>2021-06-11T15:38:05+02:00</time>
      </trkpt>
      <trkpt lat="46.62072" lon="5.90391">
        <ele>806</ele>
        <time>2021-06-11T15:38:10+02:00</time>
      </trkpt>
      <trkpt lat="46.62063" lon="5.90383">
        <ele>808</ele>
        <time>2021-06-11T15:38:15+02:00</time>
      </trkpt>
      <trkpt lat="46.62053" lon="5.9037">
        <ele>809</ele>
        <time>2021-06-11T15:38:20+02:00</time>
      </trkpt>
      <trkpt lat="46.62044" lon="5.90354">
        <ele>808</ele>
        <time>2021-06-11T15:38:25+02:00</time>
      </trkpt>
      <trkpt lat="46.62037" lon="5.90333">
        <ele>806</ele>
        <time>2021-06-11T15:38:30+02:00</time>
      </trkpt>
      <trkpt lat="46.62032" lon="5.90322">
        <ele>806</ele>
        <time>2021-06-11T15:38:35+02:00</time>
      </trkpt>
      <trkpt lat="46.62027" lon="5.90317">
        <ele>806</ele>
        <time>2021-06-11T15:38:40+02:00</time>
      </trkpt>
      <trkpt lat="46.62022" lon="5.90306">
        <ele>806</ele>
        <time>2021-06-11T15:38:45+02:00</time>
      </trkpt>
      <trkpt lat="46.62012" lon="5.90296">
        <ele>807</ele>
        <time>2021-06-11T15:38:50+02:00</time>
      </trkpt>
      <trkpt lat="46.62005" lon="5.90288">
        <ele>807</ele>
        <time>2021-06-11T15:38:55+02:00</time>
      </trkpt>
      <trkpt lat="46.61999" lon="5.9028">
        <ele>807</ele>
        <time>2021-06-11T15:39:00+02:00</time>
      </trkpt>
      <trkpt lat="46.61986" lon="5.90253">
        <ele>806</ele>
        <time>2021-06-11T15:39:05+02:00</time>
      </trkpt>
      <trkpt lat="46.61982" lon="5.9023">
        <ele>805</ele>
        <time>2021-06-11T15:39:10+02:00</time>
      </trkpt>
      <trkpt lat="46.61981" lon="5.90202">
        <ele>803</ele>
        <time>2021-06-11T15:39:15+02:00</time>
      </trkpt>
      <trkpt lat="46.61981" lon="5.902">
        <ele>802</ele>
        <time>2021-06-11T15:39:20+02:00</time>
      </trkpt>
      <trkpt lat="46.61976" lon="5.90184">
        <ele>801</ele>
        <time>2021-06-11T15:39:25+02:00</time>
      </trkpt>
      <trkpt lat="46.61976" lon="5.90179">
        <ele>801</ele>
        <time>2021-06-11T15:39:30+02:00</time>
      </trkpt>
      <trkpt lat="46.61975" lon="5.90157">
        <ele>799</ele>
        <time>2021-06-11T15:39:35+02:00</time>
      </trkpt>
      <trkpt lat="46.61972" lon="5.90137">
        <ele>799</ele>
        <time>2021-06-11T15:39:40+02:00</time>
      </trkpt>
      <trkpt lat="46.6197" lon="5.90117">
        <ele>798</ele>
        <time>2021-06-11T15:39:45+02:00</time>
      </trkpt>
      <trkpt lat="46.6197" lon="5.90104">
        <ele>797</ele>
        <time>2021-06-11T15:39:50+02:00</time>
      </trkpt>
      <trkpt lat="46.61968" lon="5.90094">
        <ele>797</ele>
        <time>2021-06-11T15:39:55+02:00</time>
      </trkpt>
      <trkpt lat="46.61967" lon="5.90089">
        <ele>797</ele>
        <time>2021-06-11T15:40:00+02:00</time>
      </trkpt>
      <trkpt lat="46.61965" lon="5.90076">
        <ele>797</ele>
        <time>2021-06-11T15:40:05+02:00</time>
      </trkpt>
      <trkpt lat="46.61959" lon="5.90058">
        <ele>797</ele>
        <time>2021-06-11T15:40:10+02:00</time>
      </trkpt>
      <trkpt lat="46.6195" lon="5.90046">
        <ele>798</ele>
        <time>2021-06-11T15:40:15+02:00</time>
      </trkpt>
      <trkpt lat="46.61946" lon="5.90035">
        <ele>799</ele>
        <time>2021-06-11T15:40:20+02:00</time>
      </trkpt>
      <trkpt lat="46.6194" lon="5.90026">
        <ele>800</ele>
        <time>2021-06-11T15:40:25+02:00</time>
      </trkpt>
      <trkpt lat="46.61931" lon="5.90006">
        <ele>802</ele>
        <time>2021-06-11T15:40:30+02:00</time>
      </trkpt>
      <trkpt lat="46.61925" lon="5.89984">
        <ele>804</ele>
        <time>2021-06-11T15:40:35+02:00</time>
      </trkpt>
      <trkpt lat="46.61922" lon="5.8997">
        <ele>805</ele>
        <time>2021-06-11T15:40:40+02:00</time>
      </trkpt>
      <trkpt lat="46.61918" lon="5.89953">
        <ele>807</ele>
        <time>2021-06-11T15:40:45+02:00</time>
      </trkpt>
      <trkpt lat="46.61917" lon="5.89938">
        <ele>807</ele>
        <time>2021-06-11T15:40:50+02:00</time>
      </trkpt>
      <trkpt lat="46.6192" lon="5.89914">
        <ele>807</ele>
        <time>2021-06-11T15:40:55+02:00</time>
      </trkpt>
      <trkpt lat="46.61919" lon="5.89908">
        <ele>807</ele>
        <time>2021-06-11T15:41:00+02:00</time>
      </trkpt>
      <trkpt lat="46.6192" lon="5.89898">
        <ele>807</ele>
        <time>2021-06-11T15:41:05+02:00</time>
      </trkpt>
      <trkpt lat="46.61924" lon="5.8988">
        <ele>806</ele>
        <time>2021-06-11T15:41:10+02:00</time>
      </trkpt>
      <trkpt lat="46.61929" lon="5.89873">
        <ele>805</ele>
        <time>2021-06-11T15:41:15+02:00</time>
      </trkpt>
      <trkpt lat="46.61939" lon="5.89855">
        <ele>803</ele>
        <time>2021-06-11T15:41:20+02:00</time>
      </trkpt>
      <trkpt lat="46.61951" lon="5.89837">
        <ele>801</ele>
        <time>2021-06-11T15:41:25+02:00</time>
      </trkpt>
      <trkpt lat="46.61963" lon="5.89816">
        <ele>800</ele>
        <time>2021-06-11T15:41:30+02:00</time>
      </trkpt>
      <trkpt lat="46.61969" lon="5.89803">
        <ele>800</ele>
        <time>2021-06-11T15:41:35+02:00</time>
      </trkpt>
      <trkpt lat="46.61971" lon="5.89801">
        <ele>800</ele>
        <time>2021-06-11T15:41:40+02:00</time>
      </trkpt>
      <trkpt lat="46.61979" lon="5.89787">
        <ele>799</ele>
        <time>2021-06-11T15:41:45+02:00</time>
      </trkpt>
      <trkpt lat="46.6198" lon="5.89781">
        <ele>799</ele>
        <time>2021-06-11T15:41:50+02:00</time>
      </trkpt>
      <trkpt lat="46.61986" lon="5.89761">
        <ele>800</ele>
        <time>2021-06-11T15:41:55+02:00</time>
      </trkpt>
      <trkpt lat="46.61985" lon="5.89739">
        <ele>801</ele>
        <time>2021-06-11T15:42:00+02:00</time>
      </trkpt>
      <trkpt lat="46.6198" lon="5.89705">
        <ele>802</ele>
        <time>2021-06-11T15:42:05+02:00</time>
      </trkpt>
      <trkpt lat="46.61973" lon="5.89685">
        <ele>803</ele>
        <time>2021-06-11T15:42:10+02:00</time>
      </trkpt>
      <trkpt lat="46.61972" lon="5.89682">
        <ele>803</ele>
        <time>2021-06-11T15:42:15+02:00</time>
      </trkpt>
      <trkpt lat="46.61963" lon="5.89663">
        <ele>803</ele>
        <time>2021-06-11T15:42:20+02:00</time>
      </trkpt>
      <trkpt lat="46.61958" lon="5.89651">
        <ele>802</ele>
        <time>2021-06-11T15:42:25+02:00</time>
      </trkpt>
      <trkpt lat="46.61952" lon="5.89645">
        <ele>802</ele>
        <time>2021-06-11T15:42:30+02:00</time>
      </trkpt>
      <trkpt lat="46.61941" lon="5.89634">
        <ele>802</ele>
        <time>2021-06-11T15:42:35+02:00</time>
      </trkpt>
      <trkpt lat="46.61929" lon="5.8962">
        <ele>801</ele>
        <time>2021-06-11T15:42:40+02:00</time>
      </trkpt>
      <trkpt lat="46.61924" lon="5.89605">
        <ele>800</ele>
        <time>2021-06-11T15:42:45+02:00</time>
      </trkpt>
      <trkpt lat="46.61922" lon="5.89586">
        <ele>797</ele>
        <time>2021-06-11T15:42:50+02:00</time>
      </trkpt>
      <trkpt lat="46.6192" lon="5.89568">
        <ele>795</ele>
        <time>2021-06-11T15:42:55+02:00</time>
      </trkpt>
      <trkpt lat="46.6192" lon="5.89548">
        <ele>793</ele>
        <time>2021-06-11T15:43:00+02:00</time>
      </trkpt>
      <trkpt lat="46.61915" lon="5.89525">
        <ele>792</ele>
        <time>2021-06-11T15:43:05+02:00</time>
      </trkpt>
      <trkpt lat="46.61909" lon="5.89503">
        <ele>791</ele>
        <time>2021-06-11T15:43:10+02:00</time>
      </trkpt>
      <trkpt lat="46.619" lon="5.89486">
        <ele>791</ele>
        <time>2021-06-11T15:43:15+02:00</time>
      </trkpt>
      <trkpt lat="46.61894" lon="5.8947">
        <ele>790</ele>
        <time>2021-06-11T15:43:20+02:00</time>
      </trkpt>
      <trkpt lat="46.61883" lon="5.89455">
        <ele>791</ele>
        <time>2021-06-11T15:43:25+02:00</time>
      </trkpt>
      <trkpt lat="46.61876" lon="5.89443">
        <ele>792</ele>
        <time>2021-06-11T15:43:30+02:00</time>
      </trkpt>
      <trkpt lat="46.6186" lon="5.89417">
        <ele>793</ele>
        <time>2021-06-11T15:43:35+02:00</time>
      </trkpt>
      <trkpt lat="46.61849" lon="5.89396">
        <ele>793</ele>
        <time>2021-06-11T15:43:40+02:00</time>
      </trkpt>
      <trkpt lat="46.6184" lon="5.89375">
        <ele>793</ele>
        <time>2021-06-11T15:43:45+02:00</time>
      </trkpt>
      <trkpt lat="46.61829" lon="5.8935">
        <ele>793</ele>
        <time>2021-06-11T15:43:50+02:00</time>
      </trkpt>
      <trkpt lat="46.61824" lon="5.89339">
        <ele>792</ele>
        <time>2021-06-11T15:43:55+02:00</time>
      </trkpt>
      <trkpt lat="46.61812" lon="5.89315">
        <ele>790</ele>
        <time>2021-06-11T15:44:00+02:00</time>
      </trkpt>
      <trkpt lat="46.61795" lon="5.89289">
        <ele>787</ele>
        <time>2021-06-11T15:44:05+02:00</time>
      </trkpt>
      <trkpt lat="46.61781" lon="5.89273">
        <ele>786</ele>
        <time>2021-06-11T15:44:10+02:00</time>
      </trkpt>
      <trkpt lat="46.6177" lon="5.8926">
        <ele>785</ele>
        <time>2021-06-11T15:44:15+02:00</time>
      </trkpt>
      <trkpt lat="46.6176" lon="5.89251">
        <ele>785</ele>
        <time>2021-06-11T15:44:20+02:00</time>
      </trkpt>
      <trkpt lat="46.61751" lon="5.8924">
        <ele>785</ele>
        <time>2021-06-11T15:44:25+02:00</time>
      </trkpt>
      <trkpt lat="46.6175" lon="5.89239">
        <ele>785</ele>
        <time>2021-06-11T15:44:30+02:00</time>
      </trkpt>
      <trkpt lat="46.61742" lon="5.8922">
        <ele>783</ele>
        <time>2021-06-11T15:44:35+02:00</time>
      </trkpt>
      <trkpt lat="46.61737" lon="5.89213">
        <ele>783</ele>
        <time>2021-06-11T15:44:40+02:00</time>
      </trkpt>
      <trkpt lat="46.61726" lon="5.89195">
        <ele>782</ele>
        <time>2021-06-11T15:44:45+02:00</time>
      </trkpt>
      <trkpt lat="46.61714" lon="5.89182">
        <ele>781</ele>
        <time>2021-06-11T15:44:50+02:00</time>
      </trkpt>
      <trkpt lat="46.61705" lon="5.89172">
        <ele>780</ele>
        <time>2021-06-11T15:44:55+02:00</time>
      </trkpt>
      <trkpt lat="46.61687" lon="5.89155">
        <ele>781</ele>
        <time>2021-06-11T15:45:00+02:00</time>
      </trkpt>
      <trkpt lat="46.61676" lon="5.89147">
        <ele>781</ele>
        <time>2021-06-11T15:45:05+02:00</time>
      </trkpt>
      <trkpt lat="46.61644" lon="5.89133">
        <ele>783</ele>
        <time>2021-06-11T15:45:10+02:00</time>
      </trkpt>
      <trkpt lat="46.61631" lon="5.8912">
        <ele>783</ele>
        <time>2021-06-11T15:45:15+02:00</time>
      </trkpt>
      <trkpt lat="46.61628" lon="5.89093">
        <ele>782</ele>
        <time>2021-06-11T15:45:20+02:00</time>
      </trkpt>
      <trkpt lat="46.61627" lon="5.89084">
        <ele>781</ele>
        <time>2021-06-11T15:45:25+02:00</time>
      </trkpt>
      <trkpt lat="46.6163" lon="5.8906">
        <ele>783</ele>
        <time>2021-06-11T15:45:30+02:00</time>
      </trkpt>
      <trkpt lat="46.61631" lon="5.89039">
        <ele>784</ele>
        <time>2021-06-11T15:45:35+02:00</time>
      </trkpt>
      <trkpt lat="46.61634" lon="5.8902">
        <ele>785</ele>
        <time>2021-06-11T15:45:40+02:00</time>
      </trkpt>
      <trkpt lat="46.61634" lon="5.89017">
        <ele>785</ele>
        <time>2021-06-11T15:45:45+02:00</time>
      </trkpt>
      <trkpt lat="46.61639" lon="5.88994">
        <ele>787</ele>
        <time>2021-06-11T15:45:50+02:00</time>
      </trkpt>
      <trkpt lat="46.61649" lon="5.88984">
        <ele>787</ele>
        <time>2021-06-11T15:45:55+02:00</time>
      </trkpt>
      <trkpt lat="46.61656" lon="5.8898">
        <ele>787</ele>
        <time>2021-06-11T15:46:00+02:00</time>
      </trkpt>
      <trkpt lat="46.61675" lon="5.88968">
        <ele>787</ele>
        <time>2021-06-11T15:46:05+02:00</time>
      </trkpt>
      <trkpt lat="46.61692" lon="5.88963">
        <ele>788</ele>
        <time>2021-06-11T15:46:10+02:00</time>
      </trkpt>
      <trkpt lat="46.61705" lon="5.88965">
        <ele>787</ele>
        <time>2021-06-11T15:46:15+02:00</time>
      </trkpt>
      <trkpt lat="46.61714" lon="5.88974">
        <ele>785</ele>
        <time>2021-06-11T15:46:20+02:00</time>
      </trkpt>
      <trkpt lat="46.61715" lon="5.88974">
        <ele>785</ele>
        <time>2021-06-11T15:46:25+02:00</time>
      </trkpt>
      <trkpt lat="46.6172" lon="5.88976">
        <ele>785</ele>
        <time>2021-06-11T15:46:30+02:00</time>
      </trkpt>
      <trkpt lat="46.61732" lon="5.88987">
        <ele>783</ele>
        <time>2021-06-11T15:46:35+02:00</time>
      </trkpt>
      <trkpt lat="46.61733" lon="5.88987">
        <ele>783</ele>
        <time>2021-06-11T15:46:40+02:00</time>
      </trkpt>
      <trkpt lat="46.61743" lon="5.88992">
        <ele>782</ele>
        <time>2021-06-11T15:46:45+02:00</time>
      </trkpt>
      <trkpt lat="46.61756" lon="5.88989">
        <ele>782</ele>
        <time>2021-06-11T15:46:50+02:00</time>
      </trkpt>
      <trkpt lat="46.61765" lon="5.88985">
        <ele>781</ele>
        <time>2021-06-11T15:46:55+02:00</time>
      </trkpt>
      <trkpt lat="46.61768" lon="5.88989">
        <ele>780</ele>
        <time>2021-06-11T15:47:00+02:00</time>
      </trkpt>
      <trkpt lat="46.61773" lon="5.88993">
        <ele>779</ele>
        <time>2021-06-11T15:47:05+02:00</time>
      </trkpt>
      <trkpt lat="46.61779" lon="5.88986">
        <ele>780</ele>
        <time>2021-06-11T15:47:10+02:00</time>
      </trkpt>
      <trkpt lat="46.61782" lon="5.88978">
        <ele>780</ele>
        <time>2021-06-11T15:47:15+02:00</time>
      </trkpt>
      <trkpt lat="46.61782" lon="5.88974">
        <ele>781</ele>
        <time>2021-06-11T15:47:20+02:00</time>
      </trkpt>
      <trkpt lat="46.61795" lon="5.88968">
        <ele>780</ele>
        <time>2021-06-11T15:47:25+02:00</time>
      </trkpt>
      <trkpt lat="46.61805" lon="5.88949">
        <ele>781</ele>
        <time>2021-06-11T15:47:30+02:00</time>
      </trkpt>
      <trkpt lat="46.61808" lon="5.88928">
        <ele>783</ele>
        <time>2021-06-11T15:47:35+02:00</time>
      </trkpt>
      <trkpt lat="46.61809" lon="5.88922">
        <ele>783</ele>
        <time>2021-06-11T15:47:40+02:00</time>
      </trkpt>
      <trkpt lat="46.6181" lon="5.88905">
        <ele>783</ele>
        <time>2021-06-11T15:47:45+02:00</time>
      </trkpt>
      <trkpt lat="46.61816" lon="5.88883">
        <ele>781</ele>
        <time>2021-06-11T15:47:50+02:00</time>
      </trkpt>
      <trkpt lat="46.61819" lon="5.88867">
        <ele>780</ele>
        <time>2021-06-11T15:47:55+02:00</time>
      </trkpt>
      <trkpt lat="46.6182" lon="5.88862">
        <ele>780</ele>
        <time>2021-06-11T15:48:00+02:00</time>
      </trkpt>
      <trkpt lat="46.61823" lon="5.88856">
        <ele>779</ele>
        <time>2021-06-11T15:48:05+02:00</time>
      </trkpt>
      <trkpt lat="46.61824" lon="5.88854">
        <ele>778</ele>
        <time>2021-06-11T15:48:10+02:00</time>
      </trkpt>
      <trkpt lat="46.61824" lon="5.88846">
        <ele>778</ele>
        <time>2021-06-11T15:48:15+02:00</time>
      </trkpt>
      <trkpt lat="46.61825" lon="5.8884">
        <ele>778</ele>
        <time>2021-06-11T15:48:20+02:00</time>
      </trkpt>
      <trkpt lat="46.61826" lon="5.88826">
        <ele>777</ele>
        <time>2021-06-11T15:48:25+02:00</time>
      </trkpt>
      <trkpt lat="46.61828" lon="5.88819">
        <ele>777</ele>
        <time>2021-06-11T15:48:30+02:00</time>
      </trkpt>
      <trkpt lat="46.61829" lon="5.8881">
        <ele>777</ele>
        <time>2021-06-11T15:48:35+02:00</time>
      </trkpt>
      <trkpt lat="46.6183" lon="5.88791">
        <ele>777</ele>
        <time>2021-06-11T15:48:40+02:00</time>
      </trkpt>
      <trkpt lat="46.6183" lon="5.88773">
        <ele>777</ele>
        <time>2021-06-11T15:48:45+02:00</time>
      </trkpt>
      <trkpt lat="46.6183" lon="5.88772">
        <ele>777</ele>
        <time>2021-06-11T15:48:50+02:00</time>
      </trkpt>
      <trkpt lat="46.6183" lon="5.88772">
        <ele>777</ele>
        <time>2021-06-11T15:48:55+02:00</time>
      </trkpt>
      <trkpt lat="46.61831" lon="5.88764">
        <ele>777</ele>
        <time>2021-06-11T15:49:00+02:00</time>
      </trkpt>
      <trkpt lat="46.61828" lon="5.88761">
        <ele>777</ele>
        <time>2021-06-11T15:49:05+02:00</time>
      </trkpt>
      <trkpt lat="46.61822" lon="5.88671">
        <ele>780</ele>
        <time>2021-06-11T15:49:10+02:00</time>
      </trkpt>
      <trkpt lat="46.61802" lon="5.8861">
        <ele>783</ele>
        <time>2021-06-11T15:49:15+02:00</time>
      </trkpt>
      <trkpt lat="46.61823" lon="5.88544">
        <ele>786</ele>
        <time>2021-06-11T15:49:20+02:00</time>
      </trkpt>
      <trkpt lat="46.6181" lon="5.88501">
        <ele>786</ele>
        <time>2021-06-11T15:49:25+02:00</time>
      </trkpt>
      <trkpt lat="46.61825" lon="5.8841">
        <ele>787</ele>
        <time>2021-06-11T15:49:30+02:00</time>
      </trkpt>
      <trkpt lat="46.61819" lon="5.88355">
        <ele>782</ele>
        <time>2021-06-11T15:49:35+02:00</time>
      </trkpt>
      <trkpt lat="46.61855" lon="5.88324">
        <ele>784</ele>
        <time>2021-06-11T15:49:40+02:00</time>
      </trkpt>
      <trkpt lat="46.61884" lon="5.88231">
        <ele>775</ele>
        <time>2021-06-11T15:49:45+02:00</time>
      </trkpt>
      <trkpt lat="46.61931" lon="5.88122">
        <ele>779</ele>
        <time>2021-06-11T15:49:50+02:00</time>
      </trkpt>
      <trkpt lat="46.61942" lon="5.88122">
        <ele>779</ele>
        <time>2021-06-11T15:49:55+02:00</time>
      </trkpt>
      <trkpt lat="46.61945" lon="5.88123">
        <ele>780</ele>
        <time>2021-06-11T15:50:00+02:00</time>
      </trkpt>
      <trkpt lat="46.61958" lon="5.88123">
        <ele>781</ele>
        <time>2021-06-11T15:50:05+02:00</time>
      </trkpt>
      <trkpt lat="46.61972" lon="5.88125">
        <ele>781</ele>
        <time>2021-06-11T15:50:10+02:00</time>
      </trkpt>
      <trkpt lat="46.61981" lon="5.88129">
        <ele>782</ele>
        <time>2021-06-11T15:50:15+02:00</time>
      </trkpt>
      <trkpt lat="46.61986" lon="5.88131">
        <ele>782</ele>
        <time>2021-06-11T15:50:20+02:00</time>
      </trkpt>
      <trkpt lat="46.6199" lon="5.88135">
        <ele>782</ele>
        <time>2021-06-11T15:50:25+02:00</time>
      </trkpt>
      <trkpt lat="46.62005" lon="5.88142">
        <ele>783</ele>
        <time>2021-06-11T15:50:30+02:00</time>
      </trkpt>
      <trkpt lat="46.62007" lon="5.88142">
        <ele>783</ele>
        <time>2021-06-11T15:50:35+02:00</time>
      </trkpt>
      <trkpt lat="46.62021" lon="5.88146">
        <ele>784</ele>
        <time>2021-06-11T15:50:40+02:00</time>
      </trkpt>
      <trkpt lat="46.62029" lon="5.88151">
        <ele>784</ele>
        <time>2021-06-11T15:50:45+02:00</time>
      </trkpt>
      <trkpt lat="46.6203" lon="5.88151">
        <ele>785</ele>
        <time>2021-06-11T15:50:50+02:00</time>
      </trkpt>
      <trkpt lat="46.62039" lon="5.88154">
        <ele>785</ele>
        <time>2021-06-11T15:50:55+02:00</time>
      </trkpt>
      <trkpt lat="46.62047" lon="5.88156">
        <ele>786</ele>
        <time>2021-06-11T15:51:00+02:00</time>
      </trkpt>
      <trkpt lat="46.62056" lon="5.88158">
        <ele>786</ele>
        <time>2021-06-11T15:51:05+02:00</time>
      </trkpt>
      <trkpt lat="46.62061" lon="5.88159">
        <ele>787</ele>
        <time>2021-06-11T15:51:10+02:00</time>
      </trkpt>
      <trkpt lat="46.62068" lon="5.88159">
        <ele>787</ele>
        <time>2021-06-11T15:51:15+02:00</time>
      </trkpt>
      <trkpt lat="46.62071" lon="5.88159">
        <ele>787</ele>
        <time>2021-06-11T15:51:20+02:00</time>
      </trkpt>
      <trkpt lat="46.62078" lon="5.88158">
        <ele>788</ele>
        <time>2021-06-11T15:51:25+02:00</time>
      </trkpt>
      <trkpt lat="46.62086" lon="5.88157">
        <ele>789</ele>
        <time>2021-06-11T15:51:30+02:00</time>
      </trkpt>
      <trkpt lat="46.62095" lon="5.88159">
        <ele>789</ele>
        <time>2021-06-11T15:51:35+02:00</time>
      </trkpt>
      <trkpt lat="46.62102" lon="5.8816">
        <ele>790</ele>
        <time>2021-06-11T15:51:40+02:00</time>
      </trkpt>
      <trkpt lat="46.62111" lon="5.88163">
        <ele>791</ele>
        <time>2021-06-11T15:51:45+02:00</time>
      </trkpt>
      <trkpt lat="46.62115" lon="5.88168">
        <ele>791</ele>
        <time>2021-06-11T15:51:50+02:00</time>
      </trkpt>
      <trkpt lat="46.62127" lon="5.88172">
        <ele>792</ele>
        <time>2021-06-11T15:51:55+02:00</time>
      </trkpt>
      <trkpt lat="46.62139" lon="5.88174">
        <ele>793</ele>
        <time>2021-06-11T15:52:00+02:00</time>
      </trkpt>
      <trkpt lat="46.62146" lon="5.88173">
        <ele>793</ele>
        <time>2021-06-11T15:52:05+02:00</time>
      </trkpt>
      <trkpt lat="46.62158" lon="5.88171">
        <ele>794</ele>
        <time>2021-06-11T15:52:10+02:00</time>
      </trkpt>
      <trkpt lat="46.62167" lon="5.8817">
        <ele>794</ele>
        <time>2021-06-11T15:52:15+02:00</time>
      </trkpt>
      <trkpt lat="46.62168" lon="5.88169">
        <ele>795</ele>
        <time>2021-06-11T15:52:20+02:00</time>
      </trkpt>
      <trkpt lat="46.62183" lon="5.88166">
        <ele>796</ele>
        <time>2021-06-11T15:52:25+02:00</time>
      </trkpt>
      <trkpt lat="46.62196" lon="5.88164">
        <ele>797</ele>
        <time>2021-06-11T15:52:30+02:00</time>
      </trkpt>
      <trkpt lat="46.62207" lon="5.8816">
        <ele>797</ele>
        <time>2021-06-11T15:52:35+02:00</time>
      </trkpt>
      <trkpt lat="46.6222" lon="5.88157">
        <ele>798</ele>
        <time>2021-06-11T15:52:40+02:00</time>
      </trkpt>
      <trkpt lat="46.62242" lon="5.88155">
        <ele>799</ele>
        <time>2021-06-11T15:52:45+02:00</time>
      </trkpt>
      <trkpt lat="46.62262" lon="5.88153">
        <ele>801</ele>
        <time>2021-06-11T15:52:50+02:00</time>
      </trkpt>
      <trkpt lat="46.62273" lon="5.8815">
        <ele>802</ele>
        <time>2021-06-11T15:52:55+02:00</time>
      </trkpt>
      <trkpt lat="46.62285" lon="5.88145">
        <ele>803</ele>
        <time>2021-06-11T15:53:00+02:00</time>
      </trkpt>
      <trkpt lat="46.62298" lon="5.88142">
        <ele>804</ele>
        <time>2021-06-11T15:53:05+02:00</time>
      </trkpt>
      <trkpt lat="46.62315" lon="5.88147">
        <ele>804</ele>
        <time>2021-06-11T15:53:10+02:00</time>
      </trkpt>
      <trkpt lat="46.62324" lon="5.88149">
        <ele>805</ele>
        <time>2021-06-11T15:53:15+02:00</time>
      </trkpt>
      <trkpt lat="46.62333" lon="5.88149">
        <ele>805</ele>
        <time>2021-06-11T15:53:20+02:00</time>
      </trkpt>
      <trkpt lat="46.62343" lon="5.8815">
        <ele>806</ele>
        <time>2021-06-11T15:53:25+02:00</time>
      </trkpt>
      <trkpt lat="46.62355" lon="5.88154">
        <ele>806</ele>
        <time>2021-06-11T15:53:30+02:00</time>
      </trkpt>
      <trkpt lat="46.62362" lon="5.88156">
        <ele>807</ele>
        <time>2021-06-11T15:53:35+02:00</time>
      </trkpt>
      <trkpt lat="46.62369" lon="5.88159">
        <ele>807</ele>
        <time>2021-06-11T15:53:40+02:00</time>
      </trkpt>
      <trkpt lat="46.6238" lon="5.88165">
        <ele>807</ele>
        <time>2021-06-11T15:53:45+02:00</time>
      </trkpt>
      <trkpt lat="46.62389" lon="5.88168">
        <ele>807</ele>
        <time>2021-06-11T15:53:50+02:00</time>
      </trkpt>
      <trkpt lat="46.62398" lon="5.88174">
        <ele>807</ele>
        <time>2021-06-11T15:53:55+02:00</time>
      </trkpt>
      <trkpt lat="46.62407" lon="5.88182">
        <ele>807</ele>
        <time>2021-06-11T15:54:00+02:00</time>
      </trkpt>
      <trkpt lat="46.62418" lon="5.88188">
        <ele>807</ele>
        <time>2021-06-11T15:54:05+02:00</time>
      </trkpt>
      <trkpt lat="46.6243" lon="5.88198">
        <ele>807</ele>
        <time>2021-06-11T15:54:10+02:00</time>
      </trkpt>
      <trkpt lat="46.62435" lon="5.88204">
        <ele>807</ele>
        <time>2021-06-11T15:54:15+02:00</time>
      </trkpt>
      <trkpt lat="46.62442" lon="5.88217">
        <ele>806</ele>
        <time>2021-06-11T15:54:20+02:00</time>
      </trkpt>
      <trkpt lat="46.6245" lon="5.88227">
        <ele>805</ele>
        <time>2021-06-11T15:54:25+02:00</time>
      </trkpt>
      <trkpt lat="46.62457" lon="5.88238">
        <ele>805</ele>
        <time>2021-06-11T15:54:30+02:00</time>
      </trkpt>
      <trkpt lat="46.62461" lon="5.88244">
        <ele>804</ele>
        <time>2021-06-11T15:54:35+02:00</time>
      </trkpt>
      <trkpt lat="46.62463" lon="5.88247">
        <ele>804</ele>
        <time>2021-06-11T15:54:40+02:00</time>
      </trkpt>
      <trkpt lat="46.62475" lon="5.88258">
        <ele>804</ele>
        <time>2021-06-11T15:54:45+02:00</time>
      </trkpt>
      <trkpt lat="46.6248" lon="5.88268">
        <ele>804</ele>
        <time>2021-06-11T15:54:50+02:00</time>
      </trkpt>
      <trkpt lat="46.62486" lon="5.88273">
        <ele>803</ele>
        <time>2021-06-11T15:54:55+02:00</time>
      </trkpt>
      <trkpt lat="46.625" lon="5.88283">
        <ele>798</ele>
        <time>2021-06-11T15:55:00+02:00</time>
      </trkpt>
      <trkpt lat="46.62504" lon="5.88287">
        <ele>802</ele>
        <time>2021-06-11T15:55:05+02:00</time>
      </trkpt>
      <trkpt lat="46.62509" lon="5.88298">
        <ele>801</ele>
        <time>2021-06-11T15:55:10+02:00</time>
      </trkpt>
      <trkpt lat="46.62521" lon="5.88312">
        <ele>801</ele>
        <time>2021-06-11T15:55:15+02:00</time>
      </trkpt>
      <trkpt lat="46.62524" lon="5.88316">
        <ele>800</ele>
        <time>2021-06-11T15:55:20+02:00</time>
      </trkpt>
      <trkpt lat="46.62527" lon="5.88319">
        <ele>800</ele>
        <time>2021-06-11T15:55:25+02:00</time>
      </trkpt>
      <trkpt lat="46.62533" lon="5.88329">
        <ele>800</ele>
        <time>2021-06-11T15:55:30+02:00</time>
      </trkpt>
      <trkpt lat="46.62537" lon="5.88335">
        <ele>799</ele>
        <time>2021-06-11T15:55:35+02:00</time>
      </trkpt>
      <trkpt lat="46.62551" lon="5.88346">
        <ele>799</ele>
        <time>2021-06-11T15:55:40+02:00</time>
      </trkpt>
      <trkpt lat="46.62553" lon="5.88347">
        <ele>799</ele>
        <time>2021-06-11T15:55:45+02:00</time>
      </trkpt>
      <trkpt lat="46.62564" lon="5.88359">
        <ele>799</ele>
        <time>2021-06-11T15:55:50+02:00</time>
      </trkpt>
      <trkpt lat="46.62574" lon="5.8837">
        <ele>799</ele>
        <time>2021-06-11T15:55:55+02:00</time>
      </trkpt>
      <trkpt lat="46.62582" lon="5.88378">
        <ele>799</ele>
        <time>2021-06-11T15:56:00+02:00</time>
      </trkpt>
      <trkpt lat="46.62592" lon="5.88387">
        <ele>799</ele>
        <time>2021-06-11T15:56:05+02:00</time>
      </trkpt>
      <trkpt lat="46.62599" lon="5.88394">
        <ele>799</ele>
        <time>2021-06-11T15:56:10+02:00</time>
      </trkpt>
      <trkpt lat="46.62611" lon="5.88412">
        <ele>798</ele>
        <time>2021-06-11T15:56:15+02:00</time>
      </trkpt>
      <trkpt lat="46.62623" lon="5.88426">
        <ele>798</ele>
        <time>2021-06-11T15:56:20+02:00</time>
      </trkpt>
      <trkpt lat="46.62635" lon="5.8844">
        <ele>799</ele>
        <time>2021-06-11T15:56:25+02:00</time>
      </trkpt>
      <trkpt lat="46.62642" lon="5.88447">
        <ele>799</ele>
        <time>2021-06-11T15:56:30+02:00</time>
      </trkpt>
      <trkpt lat="46.62651" lon="5.88457">
        <ele>799</ele>
        <time>2021-06-11T15:56:35+02:00</time>
      </trkpt>
      <trkpt lat="46.62661" lon="5.88469">
        <ele>800</ele>
        <time>2021-06-11T15:56:40+02:00</time>
      </trkpt>
      <trkpt lat="46.62672" lon="5.88482">
        <ele>800</ele>
        <time>2021-06-11T15:56:45+02:00</time>
      </trkpt>
      <trkpt lat="46.62674" lon="5.88484">
        <ele>800</ele>
        <time>2021-06-11T15:56:50+02:00</time>
      </trkpt>
      <trkpt lat="46.62687" lon="5.88498">
        <ele>800</ele>
        <time>2021-06-11T15:56:55+02:00</time>
      </trkpt>
      <trkpt lat="46.62692" lon="5.88504">
        <ele>801</ele>
        <time>2021-06-11T15:57:00+02:00</time>
      </trkpt>
      <trkpt lat="46.62704" lon="5.88518">
        <ele>801</ele>
        <time>2021-06-11T15:57:05+02:00</time>
      </trkpt>
      <trkpt lat="46.62713" lon="5.88528">
        <ele>802</ele>
        <time>2021-06-11T15:57:10+02:00</time>
      </trkpt>
      <trkpt lat="46.62721" lon="5.88537">
        <ele>802</ele>
        <time>2021-06-11T15:57:15+02:00</time>
      </trkpt>
      <trkpt lat="46.6273" lon="5.88546">
        <ele>801</ele>
        <time>2021-06-11T15:57:20+02:00</time>
      </trkpt>
      <trkpt lat="46.6274" lon="5.88558">
        <ele>801</ele>
        <time>2021-06-11T15:57:25+02:00</time>
      </trkpt>
      <trkpt lat="46.62744" lon="5.88561">
        <ele>800</ele>
        <time>2021-06-11T15:57:30+02:00</time>
      </trkpt>
      <trkpt lat="46.62756" lon="5.8858">
        <ele>799</ele>
        <time>2021-06-11T15:57:35+02:00</time>
      </trkpt>
      <trkpt lat="46.62764" lon="5.88593">
        <ele>800</ele>
        <time>2021-06-11T15:57:40+02:00</time>
      </trkpt>
      <trkpt lat="46.62772" lon="5.88611">
        <ele>800</ele>
        <time>2021-06-11T15:57:45+02:00</time>
      </trkpt>
      <trkpt lat="46.62787" lon="5.88619">
        <ele>800</ele>
        <time>2021-06-11T15:57:50+02:00</time>
      </trkpt>
      <trkpt lat="46.62797" lon="5.88625">
        <ele>800</ele>
        <time>2021-06-11T15:57:55+02:00</time>
      </trkpt>
      <trkpt lat="46.62812" lon="5.88643">
        <ele>799</ele>
        <time>2021-06-11T15:58:00+02:00</time>
      </trkpt>
      <trkpt lat="46.62824" lon="5.88656">
        <ele>798</ele>
        <time>2021-06-11T15:58:05+02:00</time>
      </trkpt>
      <trkpt lat="46.62828" lon="5.88661">
        <ele>798</ele>
        <time>2021-06-11T15:58:10+02:00</time>
      </trkpt>
      <trkpt lat="46.62841" lon="5.88677">
        <ele>798</ele>
        <time>2021-06-11T15:58:15+02:00</time>
      </trkpt>
      <trkpt lat="46.62853" lon="5.887">
        <ele>799</ele>
        <time>2021-06-11T15:58:20+02:00</time>
      </trkpt>
      <trkpt lat="46.62855" lon="5.887">
        <ele>799</ele>
        <time>2021-06-11T15:58:25+02:00</time>
      </trkpt>
      <trkpt lat="46.62857" lon="5.88695">
        <ele>799</ele>
        <time>2021-06-11T15:58:30+02:00</time>
      </trkpt>
      <trkpt lat="46.62859" lon="5.88698">
        <ele>799</ele>
        <time>2021-06-11T15:58:35+02:00</time>
      </trkpt>
      <trkpt lat="46.62861" lon="5.887">
        <ele>799</ele>
        <time>2021-06-11T15:58:40+02:00</time>
      </trkpt>
      <trkpt lat="46.62868" lon="5.88707">
        <ele>799</ele>
        <time>2021-06-11T15:58:45+02:00</time>
      </trkpt>
      <trkpt lat="46.62877" lon="5.88714">
        <ele>798</ele>
        <time>2021-06-11T15:58:50+02:00</time>
      </trkpt>
      <trkpt lat="46.62887" lon="5.88723">
        <ele>798</ele>
        <time>2021-06-11T15:58:55+02:00</time>
      </trkpt>
      <trkpt lat="46.62893" lon="5.88729">
        <ele>797</ele>
        <time>2021-06-11T15:59:00+02:00</time>
      </trkpt>
      <trkpt lat="46.62902" lon="5.88736">
        <ele>796</ele>
        <time>2021-06-11T15:59:05+02:00</time>
      </trkpt>
      <trkpt lat="46.62911" lon="5.88745">
        <ele>795</ele>
        <time>2021-06-11T15:59:10+02:00</time>
      </trkpt>
      <trkpt lat="46.62919" lon="5.88749">
        <ele>794</ele>
        <time>2021-06-11T15:59:15+02:00</time>
      </trkpt>
      <trkpt lat="46.62929" lon="5.88755">
        <ele>794</ele>
        <time>2021-06-11T15:59:20+02:00</time>
      </trkpt>
      <trkpt lat="46.62938" lon="5.88764">
        <ele>794</ele>
        <time>2021-06-11T15:59:25+02:00</time>
      </trkpt>
      <trkpt lat="46.62944" lon="5.88775">
        <ele>795</ele>
        <time>2021-06-11T15:59:30+02:00</time>
      </trkpt>
      <trkpt lat="46.62949" lon="5.88779">
        <ele>795</ele>
        <time>2021-06-11T15:59:35+02:00</time>
      </trkpt>
      <trkpt lat="46.62955" lon="5.88785">
        <ele>795</ele>
        <time>2021-06-11T15:59:40+02:00</time>
      </trkpt>
      <trkpt lat="46.62962" lon="5.88795">
        <ele>794</ele>
        <time>2021-06-11T15:59:45+02:00</time>
      </trkpt>
      <trkpt lat="46.62968" lon="5.88801">
        <ele>794</ele>
        <time>2021-06-11T15:59:50+02:00</time>
      </trkpt>
      <trkpt lat="46.62974" lon="5.88809">
        <ele>794</ele>
        <time>2021-06-11T15:59:55+02:00</time>
      </trkpt>
      <trkpt lat="46.62985" lon="5.88819">
        <ele>793</ele>
        <time>2021-06-11T16:00:00+02:00</time>
      </trkpt>
      <trkpt lat="46.6299" lon="5.88823">
        <ele>792</ele>
        <time>2021-06-11T16:00:05+02:00</time>
      </trkpt>
      <trkpt lat="46.63" lon="5.88833">
        <ele>791</ele>
        <time>2021-06-11T16:00:10+02:00</time>
      </trkpt>
      <trkpt lat="46.63011" lon="5.88845">
        <ele>791</ele>
        <time>2021-06-11T16:00:15+02:00</time>
      </trkpt>
      <trkpt lat="46.63017" lon="5.8885">
        <ele>791</ele>
        <time>2021-06-11T16:00:20+02:00</time>
      </trkpt>
      <trkpt lat="46.63025" lon="5.88857">
        <ele>791</ele>
        <time>2021-06-11T16:00:25+02:00</time>
      </trkpt>
      <trkpt lat="46.63035" lon="5.88863">
        <ele>791</ele>
        <time>2021-06-11T16:00:30+02:00</time>
      </trkpt>
      <trkpt lat="46.63043" lon="5.88869">
        <ele>791</ele>
        <time>2021-06-11T16:00:35+02:00</time>
      </trkpt>
      <trkpt lat="46.6305" lon="5.88881">
        <ele>790</ele>
        <time>2021-06-11T16:00:40+02:00</time>
      </trkpt>
      <trkpt lat="46.63056" lon="5.88891">
        <ele>790</ele>
        <time>2021-06-11T16:00:45+02:00</time>
      </trkpt>
      <trkpt lat="46.63063" lon="5.88905">
        <ele>788</ele>
        <time>2021-06-11T16:00:50+02:00</time>
      </trkpt>
      <trkpt lat="46.63069" lon="5.88914">
        <ele>787</ele>
        <time>2021-06-11T16:00:55+02:00</time>
      </trkpt>
      <trkpt lat="46.63076" lon="5.88919">
        <ele>786</ele>
        <time>2021-06-11T16:01:00+02:00</time>
      </trkpt>
      <trkpt lat="46.63086" lon="5.88931">
        <ele>785</ele>
        <time>2021-06-11T16:01:05+02:00</time>
      </trkpt>
      <trkpt lat="46.63096" lon="5.88946">
        <ele>785</ele>
        <time>2021-06-11T16:01:10+02:00</time>
      </trkpt>
      <trkpt lat="46.63111" lon="5.88963">
        <ele>784</ele>
        <time>2021-06-11T16:01:15+02:00</time>
      </trkpt>
      <trkpt lat="46.63121" lon="5.88973">
        <ele>783</ele>
        <time>2021-06-11T16:01:20+02:00</time>
      </trkpt>
      <trkpt lat="46.63121" lon="5.88975">
        <ele>783</ele>
        <time>2021-06-11T16:01:25+02:00</time>
      </trkpt>
      <trkpt lat="46.63126" lon="5.88986">
        <ele>783</ele>
        <time>2021-06-11T16:01:30+02:00</time>
      </trkpt>
      <trkpt lat="46.63132" lon="5.89006">
        <ele>782</ele>
        <time>2021-06-11T16:01:35+02:00</time>
      </trkpt>
      <trkpt lat="46.63133" lon="5.89009">
        <ele>782</ele>
        <time>2021-06-11T16:01:40+02:00</time>
      </trkpt>
      <trkpt lat="46.6314" lon="5.89024">
        <ele>782</ele>
        <time>2021-06-11T16:01:45+02:00</time>
      </trkpt>
      <trkpt lat="46.63144" lon="5.89029">
        <ele>782</ele>
        <time>2021-06-11T16:01:50+02:00</time>
      </trkpt>
      <trkpt lat="46.63153" lon="5.89045">
        <ele>781</ele>
        <time>2021-06-11T16:01:55+02:00</time>
      </trkpt>
      <trkpt lat="46.6316" lon="5.89058">
        <ele>780</ele>
        <time>2021-06-11T16:02:00+02:00</time>
      </trkpt>
      <trkpt lat="46.63164" lon="5.89064">
        <ele>780</ele>
        <time>2021-06-11T16:02:05+02:00</time>
      </trkpt>
      <trkpt lat="46.63169" lon="5.89078">
        <ele>779</ele>
        <time>2021-06-11T16:02:10+02:00</time>
      </trkpt>
      <trkpt lat="46.63178" lon="5.89095">
        <ele>779</ele>
        <time>2021-06-11T16:02:15+02:00</time>
      </trkpt>
      <trkpt lat="46.63182" lon="5.89099">
        <ele>779</ele>
        <time>2021-06-11T16:02:20+02:00</time>
      </trkpt>
      <trkpt lat="46.63184" lon="5.89103">
        <ele>779</ele>
        <time>2021-06-11T16:02:25+02:00</time>
      </trkpt>
      <trkpt lat="46.63192" lon="5.89113">
        <ele>779</ele>
        <time>2021-06-11T16:02:30+02:00</time>
      </trkpt>
      <trkpt lat="46.63203" lon="5.8913">
        <ele>779</ele>
        <time>2021-06-11T16:02:35+02:00</time>
      </trkpt>
      <trkpt lat="46.63219" lon="5.89149">
        <ele>779</ele>
        <time>2021-06-11T16:02:40+02:00</time>
      </trkpt>
      <trkpt lat="46.63231" lon="5.89158">
        <ele>778</ele>
        <time>2021-06-11T16:02:45+02:00</time>
      </trkpt>
      <trkpt lat="46.63243" lon="5.89167">
        <ele>778</ele>
        <time>2021-06-11T16:02:50+02:00</time>
      </trkpt>
      <trkpt lat="46.63253" lon="5.89177">
        <ele>778</ele>
        <time>2021-06-11T16:02:55+02:00</time>
      </trkpt>
      <trkpt lat="46.63254" lon="5.89181">
        <ele>777</ele>
        <time>2021-06-11T16:03:00+02:00</time>
      </trkpt>
      <trkpt lat="46.63256" lon="5.89209">
        <ele>776</ele>
        <time>2021-06-11T16:03:05+02:00</time>
      </trkpt>
      <trkpt lat="46.63257" lon="5.89224">
        <ele>775</ele>
        <time>2021-06-11T16:03:10+02:00</time>
      </trkpt>
      <trkpt lat="46.63257" lon="5.89226">
        <ele>775</ele>
        <time>2021-06-11T16:03:15+02:00</time>
      </trkpt>
      <trkpt lat="46.63257" lon="5.89228">
        <ele>775</ele>
        <time>2021-06-11T16:03:20+02:00</time>
      </trkpt>
      <trkpt lat="46.63257" lon="5.89229">
        <ele>775</ele>
        <time>2021-06-11T16:03:25+02:00</time>
      </trkpt>
      <trkpt lat="46.63259" lon="5.89233">
        <ele>774</ele>
        <time>2021-06-11T16:03:30+02:00</time>
      </trkpt>
      <trkpt lat="46.63262" lon="5.89243">
        <ele>774</ele>
        <time>2021-06-11T16:03:35+02:00</time>
      </trkpt>
      <trkpt lat="46.6327" lon="5.89258">
        <ele>774</ele>
        <time>2021-06-11T16:03:40+02:00</time>
      </trkpt>
      <trkpt lat="46.63274" lon="5.89264">
        <ele>774</ele>
        <time>2021-06-11T16:03:45+02:00</time>
      </trkpt>
      <trkpt lat="46.63287" lon="5.89279">
        <ele>775</ele>
        <time>2021-06-11T16:03:50+02:00</time>
      </trkpt>
      <trkpt lat="46.6329" lon="5.89285">
        <ele>775</ele>
        <time>2021-06-11T16:03:55+02:00</time>
      </trkpt>
      <trkpt lat="46.63299" lon="5.89295">
        <ele>775</ele>
        <time>2021-06-11T16:04:00+02:00</time>
      </trkpt>
      <trkpt lat="46.63314" lon="5.89302">
        <ele>775</ele>
        <time>2021-06-11T16:04:05+02:00</time>
      </trkpt>
      <trkpt lat="46.63328" lon="5.89306">
        <ele>775</ele>
        <time>2021-06-11T16:04:10+02:00</time>
      </trkpt>
      <trkpt lat="46.63341" lon="5.8931">
        <ele>775</ele>
        <time>2021-06-11T16:04:15+02:00</time>
      </trkpt>
      <trkpt lat="46.6335" lon="5.89315">
        <ele>775</ele>
        <time>2021-06-11T16:04:20+02:00</time>
      </trkpt>
      <trkpt lat="46.6335" lon="5.89317">
        <ele>775</ele>
        <time>2021-06-11T16:04:25+02:00</time>
      </trkpt>
      <trkpt lat="46.63351" lon="5.89317">
        <ele>775</ele>
        <time>2021-06-11T16:04:30+02:00</time>
      </trkpt>
      <trkpt lat="46.63351" lon="5.89316">
        <ele>775</ele>
        <time>2021-06-11T16:04:35+02:00</time>
      </trkpt>
      <trkpt lat="46.63353" lon="5.89319">
        <ele>775</ele>
        <time>2021-06-11T16:04:40+02:00</time>
      </trkpt>
      <trkpt lat="46.63357" lon="5.89329">
        <ele>774</ele>
        <time>2021-06-11T16:04:45+02:00</time>
      </trkpt>
      <trkpt lat="46.6336" lon="5.89345">
        <ele>774</ele>
        <time>2021-06-11T16:04:50+02:00</time>
      </trkpt>
      <trkpt lat="46.63361" lon="5.89346">
        <ele>774</ele>
        <time>2021-06-11T16:04:55+02:00</time>
      </trkpt>
      <trkpt lat="46.63368" lon="5.89366">
        <ele>774</ele>
        <time>2021-06-11T16:05:00+02:00</time>
      </trkpt>
      <trkpt lat="46.63372" lon="5.89374">
        <ele>774</ele>
        <time>2021-06-11T16:05:05+02:00</time>
      </trkpt>
      <trkpt lat="46.63376" lon="5.89383">
        <ele>774</ele>
        <time>2021-06-11T16:05:10+02:00</time>
      </trkpt>
      <trkpt lat="46.63376" lon="5.89385">
        <ele>774</ele>
        <time>2021-06-11T16:05:15+02:00</time>
      </trkpt>
      <trkpt lat="46.63382" lon="5.89399">
        <ele>773</ele>
        <time>2021-06-11T16:05:20+02:00</time>
      </trkpt>
      <trkpt lat="46.63388" lon="5.89414">
        <ele>772</ele>
        <time>2021-06-11T16:05:25+02:00</time>
      </trkpt>
      <trkpt lat="46.63395" lon="5.89431">
        <ele>772</ele>
        <time>2021-06-11T16:05:30+02:00</time>
      </trkpt>
      <trkpt lat="46.63397" lon="5.89438">
        <ele>773</ele>
        <time>2021-06-11T16:05:35+02:00</time>
      </trkpt>
      <trkpt lat="46.63398" lon="5.89446">
        <ele>773</ele>
        <time>2021-06-11T16:05:40+02:00</time>
      </trkpt>
      <trkpt lat="46.63401" lon="5.89456">
        <ele>773</ele>
        <time>2021-06-11T16:05:45+02:00</time>
      </trkpt>
      <trkpt lat="46.63401" lon="5.89457">
        <ele>773</ele>
        <time>2021-06-11T16:05:50+02:00</time>
      </trkpt>
      <trkpt lat="46.634" lon="5.89467">
        <ele>773</ele>
        <time>2021-06-11T16:05:55+02:00</time>
      </trkpt>
      <trkpt lat="46.63405" lon="5.89486">
        <ele>773</ele>
        <time>2021-06-11T16:06:00+02:00</time>
      </trkpt>
      <trkpt lat="46.63406" lon="5.89489">
        <ele>773</ele>
        <time>2021-06-11T16:06:05+02:00</time>
      </trkpt>
      <trkpt lat="46.63405" lon="5.89512">
        <ele>774</ele>
        <time>2021-06-11T16:06:10+02:00</time>
      </trkpt>
      <trkpt lat="46.63404" lon="5.89519">
        <ele>774</ele>
        <time>2021-06-11T16:06:15+02:00</time>
      </trkpt>
      <trkpt lat="46.63402" lon="5.89537">
        <ele>775</ele>
        <time>2021-06-11T16:06:20+02:00</time>
      </trkpt>
      <trkpt lat="46.63398" lon="5.89553">
        <ele>777</ele>
        <time>2021-06-11T16:06:25+02:00</time>
      </trkpt>
      <trkpt lat="46.63398" lon="5.89554">
        <ele>777</ele>
        <time>2021-06-11T16:06:30+02:00</time>
      </trkpt>
      <trkpt lat="46.63397" lon="5.89558">
        <ele>777</ele>
        <time>2021-06-11T16:06:35+02:00</time>
      </trkpt>
      <trkpt lat="46.63397" lon="5.89576">
        <ele>778</ele>
        <time>2021-06-11T16:06:40+02:00</time>
      </trkpt>
      <trkpt lat="46.63396" lon="5.89582">
        <ele>778</ele>
        <time>2021-06-11T16:06:45+02:00</time>
      </trkpt>
      <trkpt lat="46.63396" lon="5.89594">
        <ele>778</ele>
        <time>2021-06-11T16:06:50+02:00</time>
      </trkpt>
      <trkpt lat="46.63399" lon="5.89607">
        <ele>778</ele>
        <time>2021-06-11T16:06:55+02:00</time>
      </trkpt>
      <trkpt lat="46.63402" lon="5.89621">
        <ele>779</ele>
        <time>2021-06-11T16:07:00+02:00</time>
      </trkpt>
      <trkpt lat="46.63406" lon="5.89634">
        <ele>779</ele>
        <time>2021-06-11T16:07:05+02:00</time>
      </trkpt>
      <trkpt lat="46.63411" lon="5.89652">
        <ele>779</ele>
        <time>2021-06-11T16:07:10+02:00</time>
      </trkpt>
      <trkpt lat="46.63419" lon="5.8967">
        <ele>779</ele>
        <time>2021-06-11T16:07:15+02:00</time>
      </trkpt>
      <trkpt lat="46.63424" lon="5.89684">
        <ele>780</ele>
        <time>2021-06-11T16:07:20+02:00</time>
      </trkpt>
      <trkpt lat="46.63426" lon="5.89687">
        <ele>780</ele>
        <time>2021-06-11T16:07:25+02:00</time>
      </trkpt>
      <trkpt lat="46.63436" lon="5.89696">
        <ele>781</ele>
        <time>2021-06-11T16:07:30+02:00</time>
      </trkpt>
      <trkpt lat="46.63446" lon="5.89712">
        <ele>782</ele>
        <time>2021-06-11T16:07:35+02:00</time>
      </trkpt>
      <trkpt lat="46.63449" lon="5.89715">
        <ele>782</ele>
        <time>2021-06-11T16:07:40+02:00</time>
      </trkpt>
      <trkpt lat="46.63453" lon="5.89735">
        <ele>784</ele>
        <time>2021-06-11T16:07:45+02:00</time>
      </trkpt>
      <trkpt lat="46.63453" lon="5.89736">
        <ele>784</ele>
        <time>2021-06-11T16:07:50+02:00</time>
      </trkpt>
      <trkpt lat="46.63455" lon="5.89728">
        <ele>783</ele>
        <time>2021-06-11T16:07:55+02:00</time>
      </trkpt>
      <trkpt lat="46.63456" lon="5.89726">
        <ele>783</ele>
        <time>2021-06-11T16:08:00+02:00</time>
      </trkpt>
      <trkpt lat="46.6346" lon="5.89721">
        <ele>783</ele>
        <time>2021-06-11T16:08:05+02:00</time>
      </trkpt>
      <trkpt lat="46.63475" lon="5.89717">
        <ele>784</ele>
        <time>2021-06-11T16:08:10+02:00</time>
      </trkpt>
      <trkpt lat="46.6349" lon="5.89712">
        <ele>784</ele>
        <time>2021-06-11T16:08:15+02:00</time>
      </trkpt>
      <trkpt lat="46.63502" lon="5.8971">
        <ele>784</ele>
        <time>2021-06-11T16:08:20+02:00</time>
      </trkpt>
      <trkpt lat="46.63515" lon="5.89703">
        <ele>784</ele>
        <time>2021-06-11T16:08:25+02:00</time>
      </trkpt>
      <trkpt lat="46.63519" lon="5.89702">
        <ele>785</ele>
        <time>2021-06-11T16:08:30+02:00</time>
      </trkpt>
      <trkpt lat="46.63532" lon="5.897">
        <ele>785</ele>
        <time>2021-06-11T16:08:35+02:00</time>
      </trkpt>
      <trkpt lat="46.63543" lon="5.897">
        <ele>786</ele>
        <time>2021-06-11T16:08:40+02:00</time>
      </trkpt>
      <trkpt lat="46.6356" lon="5.897">
        <ele>787</ele>
        <time>2021-06-11T16:08:45+02:00</time>
      </trkpt>
      <trkpt lat="46.6357" lon="5.89702">
        <ele>788</ele>
        <time>2021-06-11T16:08:50+02:00</time>
      </trkpt>
      <trkpt lat="46.63584" lon="5.89703">
        <ele>788</ele>
        <time>2021-06-11T16:08:55+02:00</time>
      </trkpt>
      <trkpt lat="46.63595" lon="5.897">
        <ele>789</ele>
        <time>2021-06-11T16:09:00+02:00</time>
      </trkpt>
      <trkpt lat="46.63608" lon="5.89701">
        <ele>789</ele>
        <time>2021-06-11T16:09:05+02:00</time>
      </trkpt>
      <trkpt lat="46.63615" lon="5.89701">
        <ele>789</ele>
        <time>2021-06-11T16:09:10+02:00</time>
      </trkpt>
      <trkpt lat="46.63627" lon="5.89701">
        <ele>790</ele>
        <time>2021-06-11T16:09:15+02:00</time>
      </trkpt>
      <trkpt lat="46.63631" lon="5.89703">
        <ele>790</ele>
        <time>2021-06-11T16:09:20+02:00</time>
      </trkpt>
      <trkpt lat="46.63646" lon="5.89713">
        <ele>791</ele>
        <time>2021-06-11T16:09:25+02:00</time>
      </trkpt>
      <trkpt lat="46.63653" lon="5.89722">
        <ele>792</ele>
        <time>2021-06-11T16:09:30+02:00</time>
      </trkpt>
      <trkpt lat="46.63663" lon="5.89726">
        <ele>793</ele>
        <time>2021-06-11T16:09:35+02:00</time>
      </trkpt>
      <trkpt lat="46.63671" lon="5.8973">
        <ele>794</ele>
        <time>2021-06-11T16:09:40+02:00</time>
      </trkpt>
      <trkpt lat="46.63679" lon="5.89736">
        <ele>794</ele>
        <time>2021-06-11T16:09:45+02:00</time>
      </trkpt>
      <trkpt lat="46.63696" lon="5.89737">
        <ele>794</ele>
        <time>2021-06-11T16:09:50+02:00</time>
      </trkpt>
      <trkpt lat="46.63704" lon="5.89746">
        <ele>795</ele>
        <time>2021-06-11T16:09:55+02:00</time>
      </trkpt>
      <trkpt lat="46.63711" lon="5.89756">
        <ele>795</ele>
        <time>2021-06-11T16:10:00+02:00</time>
      </trkpt>
      <trkpt lat="46.63718" lon="5.89766">
        <ele>795</ele>
        <time>2021-06-11T16:10:05+02:00</time>
      </trkpt>
      <trkpt lat="46.63728" lon="5.89775">
        <ele>794</ele>
        <time>2021-06-11T16:10:10+02:00</time>
      </trkpt>
      <trkpt lat="46.63739" lon="5.8979">
        <ele>794</ele>
        <time>2021-06-11T16:10:15+02:00</time>
      </trkpt>
      <trkpt lat="46.63746" lon="5.89799">
        <ele>794</ele>
        <time>2021-06-11T16:10:20+02:00</time>
      </trkpt>
      <trkpt lat="46.63749" lon="5.89802">
        <ele>794</ele>
        <time>2021-06-11T16:10:25+02:00</time>
      </trkpt>
      <trkpt lat="46.63753" lon="5.8981">
        <ele>794</ele>
        <time>2021-06-11T16:10:30+02:00</time>
      </trkpt>
      <trkpt lat="46.63757" lon="5.89822">
        <ele>794</ele>
        <time>2021-06-11T16:10:35+02:00</time>
      </trkpt>
      <trkpt lat="46.63759" lon="5.89832">
        <ele>794</ele>
        <time>2021-06-11T16:10:40+02:00</time>
      </trkpt>
      <trkpt lat="46.63757" lon="5.89849">
        <ele>794</ele>
        <time>2021-06-11T16:10:45+02:00</time>
      </trkpt>
      <trkpt lat="46.63757" lon="5.89869">
        <ele>793</ele>
        <time>2021-06-11T16:10:50+02:00</time>
      </trkpt>
      <trkpt lat="46.63753" lon="5.89894">
        <ele>793</ele>
        <time>2021-06-11T16:10:55+02:00</time>
      </trkpt>
      <trkpt lat="46.63749" lon="5.89912">
        <ele>792</ele>
        <time>2021-06-11T16:11:00+02:00</time>
      </trkpt>
      <trkpt lat="46.63743" lon="5.89929">
        <ele>792</ele>
        <time>2021-06-11T16:11:05+02:00</time>
      </trkpt>
      <trkpt lat="46.63743" lon="5.8993">
        <ele>792</ele>
        <time>2021-06-11T16:11:10+02:00</time>
      </trkpt>
      <trkpt lat="46.63742" lon="5.89943">
        <ele>791</ele>
        <time>2021-06-11T16:11:15+02:00</time>
      </trkpt>
      <trkpt lat="46.63758" lon="5.89952">
        <ele>791</ele>
        <time>2021-06-11T16:11:20+02:00</time>
      </trkpt>
      <trkpt lat="46.63766" lon="5.89955">
        <ele>792</ele>
        <time>2021-06-11T16:11:25+02:00</time>
      </trkpt>
      <trkpt lat="46.6377" lon="5.89958">
        <ele>792</ele>
        <time>2021-06-11T16:11:30+02:00</time>
      </trkpt>
      <trkpt lat="46.63773" lon="5.89958">
        <ele>792</ele>
        <time>2021-06-11T16:11:35+02:00</time>
      </trkpt>
      <trkpt lat="46.6378" lon="5.89961">
        <ele>792</ele>
        <time>2021-06-11T16:11:40+02:00</time>
      </trkpt>
      <trkpt lat="46.63789" lon="5.89964">
        <ele>793</ele>
        <time>2021-06-11T16:11:45+02:00</time>
      </trkpt>
      <trkpt lat="46.63793" lon="5.89966">
        <ele>793</ele>
        <time>2021-06-11T16:11:50+02:00</time>
      </trkpt>
      <trkpt lat="46.63798" lon="5.89968">
        <ele>793</ele>
        <time>2021-06-11T16:11:55+02:00</time>
      </trkpt>
      <trkpt lat="46.6381" lon="5.89973">
        <ele>793</ele>
        <time>2021-06-11T16:12:00+02:00</time>
      </trkpt>
      <trkpt lat="46.63814" lon="5.89974">
        <ele>793</ele>
        <time>2021-06-11T16:12:05+02:00</time>
      </trkpt>
      <trkpt lat="46.63818" lon="5.89976">
        <ele>794</ele>
        <time>2021-06-11T16:12:10+02:00</time>
      </trkpt>
      <trkpt lat="46.63829" lon="5.89984">
        <ele>794</ele>
        <time>2021-06-11T16:12:15+02:00</time>
      </trkpt>
      <trkpt lat="46.63841" lon="5.89999">
        <ele>794</ele>
        <time>2021-06-11T16:12:20+02:00</time>
      </trkpt>
      <trkpt lat="46.63845" lon="5.90002">
        <ele>795</ele>
        <time>2021-06-11T16:12:25+02:00</time>
      </trkpt>
      <trkpt lat="46.63852" lon="5.90009">
        <ele>795</ele>
        <time>2021-06-11T16:12:30+02:00</time>
      </trkpt>
      <trkpt lat="46.63855" lon="5.9001">
        <ele>795</ele>
        <time>2021-06-11T16:12:35+02:00</time>
      </trkpt>
      <trkpt lat="46.63864" lon="5.90011">
        <ele>795</ele>
        <time>2021-06-11T16:12:40+02:00</time>
      </trkpt>
      <trkpt lat="46.63881" lon="5.90018">
        <ele>796</ele>
        <time>2021-06-11T16:12:45+02:00</time>
      </trkpt>
      <trkpt lat="46.63891" lon="5.90017">
        <ele>797</ele>
        <time>2021-06-11T16:12:50+02:00</time>
      </trkpt>
      <trkpt lat="46.63906" lon="5.90019">
        <ele>798</ele>
        <time>2021-06-11T16:12:55+02:00</time>
      </trkpt>
      <trkpt lat="46.6391" lon="5.90017">
        <ele>798</ele>
        <time>2021-06-11T16:13:00+02:00</time>
      </trkpt>
      <trkpt lat="46.63911" lon="5.90017">
        <ele>798</ele>
        <time>2021-06-11T16:13:05+02:00</time>
      </trkpt>
      <trkpt lat="46.63917" lon="5.90018">
        <ele>799</ele>
        <time>2021-06-11T16:13:10+02:00</time>
      </trkpt>
      <trkpt lat="46.6392" lon="5.90018">
        <ele>799</ele>
        <time>2021-06-11T16:13:15+02:00</time>
      </trkpt>
      <trkpt lat="46.63929" lon="5.90021">
        <ele>798</ele>
        <time>2021-06-11T16:13:20+02:00</time>
      </trkpt>
      <trkpt lat="46.63942" lon="5.90027">
        <ele>797</ele>
        <time>2021-06-11T16:13:25+02:00</time>
      </trkpt>
      <trkpt lat="46.63955" lon="5.90031">
        <ele>797</ele>
        <time>2021-06-11T16:13:30+02:00</time>
      </trkpt>
      <trkpt lat="46.63959" lon="5.90032">
        <ele>797</ele>
        <time>2021-06-11T16:13:35+02:00</time>
      </trkpt>
      <trkpt lat="46.63967" lon="5.90038">
        <ele>796</ele>
        <time>2021-06-11T16:13:40+02:00</time>
      </trkpt>
      <trkpt lat="46.63969" lon="5.90042">
        <ele>796</ele>
        <time>2021-06-11T16:13:45+02:00</time>
      </trkpt>
      <trkpt lat="46.63971" lon="5.90042">
        <ele>796</ele>
        <time>2021-06-11T16:13:50+02:00</time>
      </trkpt>
      <trkpt lat="46.6398" lon="5.90053">
        <ele>796</ele>
        <time>2021-06-11T16:13:55+02:00</time>
      </trkpt>
      <trkpt lat="46.63981" lon="5.90055">
        <ele>796</ele>
        <time>2021-06-11T16:14:00+02:00</time>
      </trkpt>
      <trkpt lat="46.63984" lon="5.90058">
        <ele>796</ele>
        <time>2021-06-11T16:14:05+02:00</time>
      </trkpt>
      <trkpt lat="46.63988" lon="5.90063">
        <ele>796</ele>
        <time>2021-06-11T16:14:10+02:00</time>
      </trkpt>
      <trkpt lat="46.63995" lon="5.9007">
        <ele>796</ele>
        <time>2021-06-11T16:14:15+02:00</time>
      </trkpt>
      <trkpt lat="46.64001" lon="5.90076">
        <ele>797</ele>
        <time>2021-06-11T16:14:20+02:00</time>
      </trkpt>
      <trkpt lat="46.64009" lon="5.90085">
        <ele>796</ele>
        <time>2021-06-11T16:14:25+02:00</time>
      </trkpt>
      <trkpt lat="46.64022" lon="5.90097">
        <ele>795</ele>
        <time>2021-06-11T16:14:30+02:00</time>
      </trkpt>
      <trkpt lat="46.64032" lon="5.90112">
        <ele>795</ele>
        <time>2021-06-11T16:14:35+02:00</time>
      </trkpt>
      <trkpt lat="46.64039" lon="5.90129">
        <ele>794</ele>
        <time>2021-06-11T16:14:40+02:00</time>
      </trkpt>
      <trkpt lat="46.6404" lon="5.90131">
        <ele>794</ele>
        <time>2021-06-11T16:14:45+02:00</time>
      </trkpt>
      <trkpt lat="46.64041" lon="5.90137">
        <ele>794</ele>
        <time>2021-06-11T16:14:50+02:00</time>
      </trkpt>
      <trkpt lat="46.64041" lon="5.90138">
        <ele>794</ele>
        <time>2021-06-11T16:14:55+02:00</time>
      </trkpt>
      <trkpt lat="46.64042" lon="5.9014">
        <ele>794</ele>
        <time>2021-06-11T16:15:00+02:00</time>
      </trkpt>
      <trkpt lat="46.64043" lon="5.90143">
        <ele>794</ele>
        <time>2021-06-11T16:15:05+02:00</time>
      </trkpt>
      <trkpt lat="46.64043" lon="5.90144">
        <ele>794</ele>
        <time>2021-06-11T16:15:10+02:00</time>
      </trkpt>
      <trkpt lat="46.6405" lon="5.90161">
        <ele>794</ele>
        <time>2021-06-11T16:15:15+02:00</time>
      </trkpt>
      <trkpt lat="46.64053" lon="5.90167">
        <ele>794</ele>
        <time>2021-06-11T16:15:20+02:00</time>
      </trkpt>
      <trkpt lat="46.64056" lon="5.90174">
        <ele>794</ele>
        <time>2021-06-11T16:15:25+02:00</time>
      </trkpt>
      <trkpt lat="46.64064" lon="5.90189">
        <ele>793</ele>
        <time>2021-06-11T16:15:30+02:00</time>
      </trkpt>
      <trkpt lat="46.64071" lon="5.90201">
        <ele>792</ele>
        <time>2021-06-11T16:15:35+02:00</time>
      </trkpt>
      <trkpt lat="46.64075" lon="5.90215">
        <ele>792</ele>
        <time>2021-06-11T16:15:40+02:00</time>
      </trkpt>
      <trkpt lat="46.64078" lon="5.90229">
        <ele>791</ele>
        <time>2021-06-11T16:15:45+02:00</time>
      </trkpt>
      <trkpt lat="46.64083" lon="5.90245">
        <ele>791</ele>
        <time>2021-06-11T16:15:50+02:00</time>
      </trkpt>
      <trkpt lat="46.64086" lon="5.90264">
        <ele>790</ele>
        <time>2021-06-11T16:15:55+02:00</time>
      </trkpt>
      <trkpt lat="46.64092" lon="5.90284">
        <ele>789</ele>
        <time>2021-06-11T16:16:00+02:00</time>
      </trkpt>
      <trkpt lat="46.64096" lon="5.90305">
        <ele>788</ele>
        <time>2021-06-11T16:16:05+02:00</time>
      </trkpt>
      <trkpt lat="46.64099" lon="5.90316">
        <ele>787</ele>
        <time>2021-06-11T16:16:10+02:00</time>
      </trkpt>
      <trkpt lat="46.64102" lon="5.90329">
        <ele>786</ele>
        <time>2021-06-11T16:16:15+02:00</time>
      </trkpt>
      <trkpt lat="46.64105" lon="5.90343">
        <ele>785</ele>
        <time>2021-06-11T16:16:20+02:00</time>
      </trkpt>
      <trkpt lat="46.64109" lon="5.9036">
        <ele>783</ele>
        <time>2021-06-11T16:16:25+02:00</time>
      </trkpt>
      <trkpt lat="46.64109" lon="5.90374">
        <ele>783</ele>
        <time>2021-06-11T16:16:30+02:00</time>
      </trkpt>
      <trkpt lat="46.64109" lon="5.90395">
        <ele>782</ele>
        <time>2021-06-11T16:16:35+02:00</time>
      </trkpt>
      <trkpt lat="46.64109" lon="5.904">
        <ele>782</ele>
        <time>2021-06-11T16:16:40+02:00</time>
      </trkpt>
      <trkpt lat="46.64107" lon="5.90423">
        <ele>781</ele>
        <time>2021-06-11T16:16:45+02:00</time>
      </trkpt>
      <trkpt lat="46.64106" lon="5.90441">
        <ele>780</ele>
        <time>2021-06-11T16:16:50+02:00</time>
      </trkpt>
      <trkpt lat="46.64106" lon="5.90443">
        <ele>780</ele>
        <time>2021-06-11T16:16:55+02:00</time>
      </trkpt>
      <trkpt lat="46.64101" lon="5.9047">
        <ele>779</ele>
        <time>2021-06-11T16:17:00+02:00</time>
      </trkpt>
      <trkpt lat="46.64098" lon="5.90484">
        <ele>779</ele>
        <time>2021-06-11T16:17:05+02:00</time>
      </trkpt>
      <trkpt lat="46.64096" lon="5.90503">
        <ele>778</ele>
        <time>2021-06-11T16:17:10+02:00</time>
      </trkpt>
      <trkpt lat="46.64094" lon="5.90516">
        <ele>778</ele>
        <time>2021-06-11T16:17:15+02:00</time>
      </trkpt>
      <trkpt lat="46.64096" lon="5.90532">
        <ele>777</ele>
        <time>2021-06-11T16:17:20+02:00</time>
      </trkpt>
      <trkpt lat="46.64097" lon="5.90549">
        <ele>775</ele>
        <time>2021-06-11T16:17:25+02:00</time>
      </trkpt>
      <trkpt lat="46.64097" lon="5.90565">
        <ele>774</ele>
        <time>2021-06-11T16:17:30+02:00</time>
      </trkpt>
      <trkpt lat="46.64096" lon="5.90567">
        <ele>774</ele>
        <time>2021-06-11T16:17:35+02:00</time>
      </trkpt>
      <trkpt lat="46.64091" lon="5.90585">
        <ele>774</ele>
        <time>2021-06-11T16:17:40+02:00</time>
      </trkpt>
      <trkpt lat="46.64088" lon="5.906">
        <ele>773</ele>
        <time>2021-06-11T16:17:45+02:00</time>
      </trkpt>
      <trkpt lat="46.64087" lon="5.90614">
        <ele>773</ele>
        <time>2021-06-11T16:17:50+02:00</time>
      </trkpt>
      <trkpt lat="46.64083" lon="5.90633">
        <ele>770</ele>
        <time>2021-06-11T16:17:55+02:00</time>
      </trkpt>
      <trkpt lat="46.64079" lon="5.90651">
        <ele>771</ele>
        <time>2021-06-11T16:18:00+02:00</time>
      </trkpt>
      <trkpt lat="46.64079" lon="5.9066">
        <ele>770</ele>
        <time>2021-06-11T16:18:05+02:00</time>
      </trkpt>
      <trkpt lat="46.64075" lon="5.90675">
        <ele>769</ele>
        <time>2021-06-11T16:18:10+02:00</time>
      </trkpt>
      <trkpt lat="46.64075" lon="5.9068">
        <ele>769</ele>
        <time>2021-06-11T16:18:15+02:00</time>
      </trkpt>
      <trkpt lat="46.64071" lon="5.90696">
        <ele>767</ele>
        <time>2021-06-11T16:18:20+02:00</time>
      </trkpt>
      <trkpt lat="46.64067" lon="5.90712">
        <ele>766</ele>
        <time>2021-06-11T16:18:25+02:00</time>
      </trkpt>
      <trkpt lat="46.64063" lon="5.90731">
        <ele>764</ele>
        <time>2021-06-11T16:18:30+02:00</time>
      </trkpt>
      <trkpt lat="46.64059" lon="5.90751">
        <ele>762</ele>
        <time>2021-06-11T16:18:35+02:00</time>
      </trkpt>
      <trkpt lat="46.64057" lon="5.90765">
        <ele>761</ele>
        <time>2021-06-11T16:18:40+02:00</time>
      </trkpt>
      <trkpt lat="46.64054" lon="5.90773">
        <ele>760</ele>
        <time>2021-06-11T16:18:45+02:00</time>
      </trkpt>
      <trkpt lat="46.64055" lon="5.90783">
        <ele>760</ele>
        <time>2021-06-11T16:18:50+02:00</time>
      </trkpt>
      <trkpt lat="46.64062" lon="5.90791">
        <ele>759</ele>
        <time>2021-06-11T16:18:55+02:00</time>
      </trkpt>
      <trkpt lat="46.64067" lon="5.90796">
        <ele>759</ele>
        <time>2021-06-11T16:19:00+02:00</time>
      </trkpt>
      <trkpt lat="46.64077" lon="5.90803">
        <ele>758</ele>
        <time>2021-06-11T16:19:05+02:00</time>
      </trkpt>
      <trkpt lat="46.64091" lon="5.9081">
        <ele>757</ele>
        <time>2021-06-11T16:19:10+02:00</time>
      </trkpt>
      <trkpt lat="46.64101" lon="5.90815">
        <ele>756</ele>
        <time>2021-06-11T16:19:15+02:00</time>
      </trkpt>
      <trkpt lat="46.64113" lon="5.90818">
        <ele>754</ele>
        <time>2021-06-11T16:19:20+02:00</time>
      </trkpt>
      <trkpt lat="46.64117" lon="5.90814">
        <ele>754</ele>
        <time>2021-06-11T16:19:25+02:00</time>
      </trkpt>
      <trkpt lat="46.64128" lon="5.90799">
        <ele>755</ele>
        <time>2021-06-11T16:19:30+02:00</time>
      </trkpt>
      <trkpt lat="46.64138" lon="5.90781">
        <ele>756</ele>
        <time>2021-06-11T16:19:35+02:00</time>
      </trkpt>
      <trkpt lat="46.64147" lon="5.90758">
        <ele>757</ele>
        <time>2021-06-11T16:19:40+02:00</time>
      </trkpt>
      <trkpt lat="46.6415" lon="5.90753">
        <ele>758</ele>
        <time>2021-06-11T16:19:45+02:00</time>
      </trkpt>
      <trkpt lat="46.64157" lon="5.90738">
        <ele>758</ele>
        <time>2021-06-11T16:19:50+02:00</time>
      </trkpt>
      <trkpt lat="46.64156" lon="5.90721">
        <ele>759</ele>
        <time>2021-06-11T16:19:55+02:00</time>
      </trkpt>
      <trkpt lat="46.64155" lon="5.90703">
        <ele>759</ele>
        <time>2021-06-11T16:20:00+02:00</time>
      </trkpt>
      <trkpt lat="46.64154" lon="5.90686">
        <ele>760</ele>
        <time>2021-06-11T16:20:05+02:00</time>
      </trkpt>
      <trkpt lat="46.64155" lon="5.90677">
        <ele>760</ele>
        <time>2021-06-11T16:20:10+02:00</time>
      </trkpt>
      <trkpt lat="46.64154" lon="5.90666">
        <ele>761</ele>
        <time>2021-06-11T16:20:15+02:00</time>
      </trkpt>
      <trkpt lat="46.64157" lon="5.90655">
        <ele>761</ele>
        <time>2021-06-11T16:20:20+02:00</time>
      </trkpt>
      <trkpt lat="46.64156" lon="5.90649">
        <ele>761</ele>
        <time>2021-06-11T16:20:25+02:00</time>
      </trkpt>
      <trkpt lat="46.64158" lon="5.90633">
        <ele>761</ele>
        <time>2021-06-11T16:20:30+02:00</time>
      </trkpt>
      <trkpt lat="46.64159" lon="5.90608">
        <ele>762</ele>
        <time>2021-06-11T16:20:35+02:00</time>
      </trkpt>
      <trkpt lat="46.64161" lon="5.9059">
        <ele>763</ele>
        <time>2021-06-11T16:20:40+02:00</time>
      </trkpt>
      <trkpt lat="46.64164" lon="5.90567">
        <ele>763</ele>
        <time>2021-06-11T16:20:45+02:00</time>
      </trkpt>
      <trkpt lat="46.64169" lon="5.90545">
        <ele>763</ele>
        <time>2021-06-11T16:20:50+02:00</time>
      </trkpt>
      <trkpt lat="46.6417" lon="5.90541">
        <ele>763</ele>
        <time>2021-06-11T16:20:55+02:00</time>
      </trkpt>
      <trkpt lat="46.64175" lon="5.90529">
        <ele>763</ele>
        <time>2021-06-11T16:21:00+02:00</time>
      </trkpt>
      <trkpt lat="46.64178" lon="5.90519">
        <ele>763</ele>
        <time>2021-06-11T16:21:05+02:00</time>
      </trkpt>
      <trkpt lat="46.64182" lon="5.90514">
        <ele>763</ele>
        <time>2021-06-11T16:21:10+02:00</time>
      </trkpt>
      <trkpt lat="46.6419" lon="5.90503">
        <ele>762</ele>
        <time>2021-06-11T16:21:15+02:00</time>
      </trkpt>
      <trkpt lat="46.64198" lon="5.90501">
        <ele>761</ele>
        <time>2021-06-11T16:21:20+02:00</time>
      </trkpt>
      <trkpt lat="46.64214" lon="5.90493">
        <ele>760</ele>
        <time>2021-06-11T16:21:25+02:00</time>
      </trkpt>
      <trkpt lat="46.64214" lon="5.90492">
        <ele>760</ele>
        <time>2021-06-11T16:21:30+02:00</time>
      </trkpt>
      <trkpt lat="46.64217" lon="5.90487">
        <ele>760</ele>
        <time>2021-06-11T16:21:35+02:00</time>
      </trkpt>
      <trkpt lat="46.64221" lon="5.90482">
        <ele>760</ele>
        <time>2021-06-11T16:21:40+02:00</time>
      </trkpt>
      <trkpt lat="46.64221" lon="5.90477">
        <ele>760</ele>
        <time>2021-06-11T16:21:45+02:00</time>
      </trkpt>
      <trkpt lat="46.6423" lon="5.90468">
        <ele>760</ele>
        <time>2021-06-11T16:21:50+02:00</time>
      </trkpt>
      <trkpt lat="46.64246" lon="5.90449">
        <ele>759</ele>
        <time>2021-06-11T16:21:55+02:00</time>
      </trkpt>
      <trkpt lat="46.64258" lon="5.90436">
        <ele>758</ele>
        <time>2021-06-11T16:22:00+02:00</time>
      </trkpt>
      <trkpt lat="46.64265" lon="5.90431">
        <ele>758</ele>
        <time>2021-06-11T16:22:05+02:00</time>
      </trkpt>
      <trkpt lat="46.64272" lon="5.9042">
        <ele>758</ele>
        <time>2021-06-11T16:22:10+02:00</time>
      </trkpt>
      <trkpt lat="46.6428" lon="5.90406">
        <ele>758</ele>
        <time>2021-06-11T16:22:15+02:00</time>
      </trkpt>
      <trkpt lat="46.64292" lon="5.90396">
        <ele>759</ele>
        <time>2021-06-11T16:22:20+02:00</time>
      </trkpt>
      <trkpt lat="46.64306" lon="5.90389">
        <ele>758</ele>
        <time>2021-06-11T16:22:25+02:00</time>
      </trkpt>
      <trkpt lat="46.64328" lon="5.90389">
        <ele>756</ele>
        <time>2021-06-11T16:22:30+02:00</time>
      </trkpt>
      <trkpt lat="46.64338" lon="5.9039">
        <ele>756</ele>
        <time>2021-06-11T16:22:35+02:00</time>
      </trkpt>
      <trkpt lat="46.64346" lon="5.90389">
        <ele>757</ele>
        <time>2021-06-11T16:22:40+02:00</time>
      </trkpt>
      <trkpt lat="46.64361" lon="5.90391">
        <ele>757</ele>
        <time>2021-06-11T16:22:45+02:00</time>
      </trkpt>
      <trkpt lat="46.64367" lon="5.90394">
        <ele>757</ele>
        <time>2021-06-11T16:22:50+02:00</time>
      </trkpt>
      <trkpt lat="46.64378" lon="5.90411">
        <ele>756</ele>
        <time>2021-06-11T16:22:55+02:00</time>
      </trkpt>
      <trkpt lat="46.64381" lon="5.90414">
        <ele>756</ele>
        <time>2021-06-11T16:23:00+02:00</time>
      </trkpt>
      <trkpt lat="46.64382" lon="5.9042">
        <ele>756</ele>
        <time>2021-06-11T16:23:05+02:00</time>
      </trkpt>
      <trkpt lat="46.64387" lon="5.90434">
        <ele>756</ele>
        <time>2021-06-11T16:23:10+02:00</time>
      </trkpt>
      <trkpt lat="46.64391" lon="5.90454">
        <ele>755</ele>
        <time>2021-06-11T16:23:15+02:00</time>
      </trkpt>
      <trkpt lat="46.64393" lon="5.90477">
        <ele>755</ele>
        <time>2021-06-11T16:23:20+02:00</time>
      </trkpt>
      <trkpt lat="46.64393" lon="5.90479">
        <ele>755</ele>
        <time>2021-06-11T16:23:25+02:00</time>
      </trkpt>
      <trkpt lat="46.64396" lon="5.90488">
        <ele>754</ele>
        <time>2021-06-11T16:23:30+02:00</time>
      </trkpt>
      <trkpt lat="46.64397" lon="5.90505">
        <ele>754</ele>
        <time>2021-06-11T16:23:35+02:00</time>
      </trkpt>
      <trkpt lat="46.64397" lon="5.9051">
        <ele>754</ele>
        <time>2021-06-11T16:23:40+02:00</time>
      </trkpt>
      <trkpt lat="46.64397" lon="5.90514">
        <ele>754</ele>
        <time>2021-06-11T16:23:45+02:00</time>
      </trkpt>
      <trkpt lat="46.64394" lon="5.90531">
        <ele>753</ele>
        <time>2021-06-11T16:23:50+02:00</time>
      </trkpt>
      <trkpt lat="46.64394" lon="5.90544">
        <ele>753</ele>
        <time>2021-06-11T16:23:55+02:00</time>
      </trkpt>
      <trkpt lat="46.64394" lon="5.90558">
        <ele>753</ele>
        <time>2021-06-11T16:24:00+02:00</time>
      </trkpt>
      <trkpt lat="46.64392" lon="5.90577">
        <ele>752</ele>
        <time>2021-06-11T16:24:05+02:00</time>
      </trkpt>
      <trkpt lat="46.64393" lon="5.90581">
        <ele>752</ele>
        <time>2021-06-11T16:24:10+02:00</time>
      </trkpt>
      <trkpt lat="46.64395" lon="5.90602">
        <ele>752</ele>
        <time>2021-06-11T16:24:15+02:00</time>
      </trkpt>
      <trkpt lat="46.64397" lon="5.90618">
        <ele>752</ele>
        <time>2021-06-11T16:24:20+02:00</time>
      </trkpt>
      <trkpt lat="46.64401" lon="5.90635">
        <ele>752</ele>
        <time>2021-06-11T16:24:25+02:00</time>
      </trkpt>
      <trkpt lat="46.64403" lon="5.9065">
        <ele>752</ele>
        <time>2021-06-11T16:24:30+02:00</time>
      </trkpt>
      <trkpt lat="46.64408" lon="5.90665">
        <ele>752</ele>
        <time>2021-06-11T16:24:35+02:00</time>
      </trkpt>
      <trkpt lat="46.64408" lon="5.90684">
        <ele>753</ele>
        <time>2021-06-11T16:24:40+02:00</time>
      </trkpt>
      <trkpt lat="46.64412" lon="5.90704">
        <ele>753</ele>
        <time>2021-06-11T16:24:45+02:00</time>
      </trkpt>
      <trkpt lat="46.64412" lon="5.90712">
        <ele>753</ele>
        <time>2021-06-11T16:24:50+02:00</time>
      </trkpt>
      <trkpt lat="46.64414" lon="5.90728">
        <ele>754</ele>
        <time>2021-06-11T16:24:55+02:00</time>
      </trkpt>
      <trkpt lat="46.64418" lon="5.90752">
        <ele>754</ele>
        <time>2021-06-11T16:25:00+02:00</time>
      </trkpt>
      <trkpt lat="46.64419" lon="5.90769">
        <ele>753</ele>
        <time>2021-06-11T16:25:05+02:00</time>
      </trkpt>
      <trkpt lat="46.64418" lon="5.90781">
        <ele>752</ele>
        <time>2021-06-11T16:25:10+02:00</time>
      </trkpt>
      <trkpt lat="46.64419" lon="5.90798">
        <ele>751</ele>
        <time>2021-06-11T16:25:15+02:00</time>
      </trkpt>
      <trkpt lat="46.64419" lon="5.9081">
        <ele>750</ele>
        <time>2021-06-11T16:25:20+02:00</time>
      </trkpt>
      <trkpt lat="46.64423" lon="5.9081">
        <ele>751</ele>
        <time>2021-06-11T16:25:25+02:00</time>
      </trkpt>
      <trkpt lat="46.64422" lon="5.90812">
        <ele>751</ele>
        <time>2021-06-11T16:25:30+02:00</time>
      </trkpt>
      <trkpt lat="46.64422" lon="5.90828">
        <ele>750</ele>
        <time>2021-06-11T16:25:35+02:00</time>
      </trkpt>
      <trkpt lat="46.64425" lon="5.90842">
        <ele>750</ele>
        <time>2021-06-11T16:25:40+02:00</time>
      </trkpt>
      <trkpt lat="46.64428" lon="5.90859">
        <ele>750</ele>
        <time>2021-06-11T16:25:45+02:00</time>
      </trkpt>
      <trkpt lat="46.64432" lon="5.90861">
        <ele>751</ele>
        <time>2021-06-11T16:25:50+02:00</time>
      </trkpt>
      <trkpt lat="46.64436" lon="5.90877">
        <ele>752</ele>
        <time>2021-06-11T16:25:55+02:00</time>
      </trkpt>
      <trkpt lat="46.64435" lon="5.90891">
        <ele>752</ele>
        <time>2021-06-11T16:26:00+02:00</time>
      </trkpt>
      <trkpt lat="46.6444" lon="5.90902">
        <ele>752</ele>
        <time>2021-06-11T16:26:05+02:00</time>
      </trkpt>
      <trkpt lat="46.6444" lon="5.90907">
        <ele>752</ele>
        <time>2021-06-11T16:26:10+02:00</time>
      </trkpt>
      <trkpt lat="46.64441" lon="5.90911">
        <ele>752</ele>
        <time>2021-06-11T16:26:15+02:00</time>
      </trkpt>
      <trkpt lat="46.64442" lon="5.90917">
        <ele>752</ele>
        <time>2021-06-11T16:26:20+02:00</time>
      </trkpt>
      <trkpt lat="46.64447" lon="5.90928">
        <ele>753</ele>
        <time>2021-06-11T16:26:25+02:00</time>
      </trkpt>
      <trkpt lat="46.64452" lon="5.9093">
        <ele>753</ele>
        <time>2021-06-11T16:26:30+02:00</time>
      </trkpt>
      <trkpt lat="46.64453" lon="5.90932">
        <ele>754</ele>
        <time>2021-06-11T16:26:35+02:00</time>
      </trkpt>
      <trkpt lat="46.64452" lon="5.90934">
        <ele>753</ele>
        <time>2021-06-11T16:26:40+02:00</time>
      </trkpt>
      <trkpt lat="46.64453" lon="5.9094">
        <ele>753</ele>
        <time>2021-06-11T16:26:45+02:00</time>
      </trkpt>
      <trkpt lat="46.64456" lon="5.90956">
        <ele>753</ele>
        <time>2021-06-11T16:26:50+02:00</time>
      </trkpt>
      <trkpt lat="46.6446" lon="5.90977">
        <ele>753</ele>
        <time>2021-06-11T16:26:55+02:00</time>
      </trkpt>
      <trkpt lat="46.64461" lon="5.9098">
        <ele>753</ele>
        <time>2021-06-11T16:27:00+02:00</time>
      </trkpt>
      <trkpt lat="46.64463" lon="5.90986">
        <ele>753</ele>
        <time>2021-06-11T16:27:05+02:00</time>
      </trkpt>
      <trkpt lat="46.64468" lon="5.91001">
        <ele>753</ele>
        <time>2021-06-11T16:27:10+02:00</time>
      </trkpt>
      <trkpt lat="46.64469" lon="5.91008">
        <ele>753</ele>
        <time>2021-06-11T16:27:15+02:00</time>
      </trkpt>
      <trkpt lat="46.64472" lon="5.91022">
        <ele>753</ele>
        <time>2021-06-11T16:27:20+02:00</time>
      </trkpt>
      <trkpt lat="46.64475" lon="5.91031">
        <ele>753</ele>
        <time>2021-06-11T16:27:25+02:00</time>
      </trkpt>
      <trkpt lat="46.64477" lon="5.91039">
        <ele>753</ele>
        <time>2021-06-11T16:27:30+02:00</time>
      </trkpt>
      <trkpt lat="46.64479" lon="5.91053">
        <ele>753</ele>
        <time>2021-06-11T16:27:35+02:00</time>
      </trkpt>
      <trkpt lat="46.6448" lon="5.91058">
        <ele>753</ele>
        <time>2021-06-11T16:27:40+02:00</time>
      </trkpt>
      <trkpt lat="46.64481" lon="5.91061">
        <ele>753</ele>
        <time>2021-06-11T16:27:45+02:00</time>
      </trkpt>
      <trkpt lat="46.64484" lon="5.9107">
        <ele>753</ele>
        <time>2021-06-11T16:27:50+02:00</time>
      </trkpt>
      <trkpt lat="46.64485" lon="5.91074">
        <ele>753</ele>
        <time>2021-06-11T16:27:55+02:00</time>
      </trkpt>
      <trkpt lat="46.64486" lon="5.91083">
        <ele>753</ele>
        <time>2021-06-11T16:28:00+02:00</time>
      </trkpt>
      <trkpt lat="46.64487" lon="5.91092">
        <ele>753</ele>
        <time>2021-06-11T16:28:05+02:00</time>
      </trkpt>
      <trkpt lat="46.64487" lon="5.91097">
        <ele>753</ele>
        <time>2021-06-11T16:28:10+02:00</time>
      </trkpt>
      <trkpt lat="46.64489" lon="5.91108">
        <ele>753</ele>
        <time>2021-06-11T16:28:15+02:00</time>
      </trkpt>
      <trkpt lat="46.64493" lon="5.91124">
        <ele>753</ele>
        <time>2021-06-11T16:28:20+02:00</time>
      </trkpt>
      <trkpt lat="46.64496" lon="5.91128">
        <ele>753</ele>
        <time>2021-06-11T16:28:25+02:00</time>
      </trkpt>
      <trkpt lat="46.64496" lon="5.91132">
        <ele>753</ele>
        <time>2021-06-11T16:28:30+02:00</time>
      </trkpt>
      <trkpt lat="46.64496" lon="5.91137">
        <ele>752</ele>
        <time>2021-06-11T16:28:35+02:00</time>
      </trkpt>
      <trkpt lat="46.64497" lon="5.91143">
        <ele>752</ele>
        <time>2021-06-11T16:28:40+02:00</time>
      </trkpt>
      <trkpt lat="46.64498" lon="5.91158">
        <ele>752</ele>
        <time>2021-06-11T16:28:45+02:00</time>
      </trkpt>
      <trkpt lat="46.645" lon="5.91168">
        <ele>752</ele>
        <time>2021-06-11T16:28:50+02:00</time>
      </trkpt>
      <trkpt lat="46.64502" lon="5.9118">
        <ele>752</ele>
        <time>2021-06-11T16:28:55+02:00</time>
      </trkpt>
      <trkpt lat="46.64504" lon="5.91192">
        <ele>753</ele>
        <time>2021-06-11T16:29:00+02:00</time>
      </trkpt>
      <trkpt lat="46.64504" lon="5.9121">
        <ele>753</ele>
        <time>2021-06-11T16:29:05+02:00</time>
      </trkpt>
      <trkpt lat="46.64505" lon="5.91217">
        <ele>753</ele>
        <time>2021-06-11T16:29:10+02:00</time>
      </trkpt>
      <trkpt lat="46.645" lon="5.91239">
        <ele>752</ele>
        <time>2021-06-11T16:29:15+02:00</time>
      </trkpt>
      <trkpt lat="46.645" lon="5.91241">
        <ele>752</ele>
        <time>2021-06-11T16:29:20+02:00</time>
      </trkpt>
      <trkpt lat="46.64498" lon="5.9125">
        <ele>752</ele>
        <time>2021-06-11T16:29:25+02:00</time>
      </trkpt>
      <trkpt lat="46.64496" lon="5.91271">
        <ele>751</ele>
        <time>2021-06-11T16:29:30+02:00</time>
      </trkpt>
      <trkpt lat="46.64492" lon="5.91285">
        <ele>751</ele>
        <time>2021-06-11T16:29:35+02:00</time>
      </trkpt>
      <trkpt lat="46.64489" lon="5.91293">
        <ele>751</ele>
        <time>2021-06-11T16:29:40+02:00</time>
      </trkpt>
      <trkpt lat="46.64488" lon="5.91301">
        <ele>750</ele>
        <time>2021-06-11T16:29:45+02:00</time>
      </trkpt>
      <trkpt lat="46.64488" lon="5.91305">
        <ele>750</ele>
        <time>2021-06-11T16:29:50+02:00</time>
      </trkpt>
      <trkpt lat="46.64489" lon="5.91309">
        <ele>750</ele>
        <time>2021-06-11T16:29:55+02:00</time>
      </trkpt>
      <trkpt lat="46.64489" lon="5.91318">
        <ele>750</ele>
        <time>2021-06-11T16:30:00+02:00</time>
      </trkpt>
      <trkpt lat="46.64495" lon="5.91341">
        <ele>750</ele>
        <time>2021-06-11T16:30:05+02:00</time>
      </trkpt>
      <trkpt lat="46.64505" lon="5.91356">
        <ele>750</ele>
        <time>2021-06-11T16:30:10+02:00</time>
      </trkpt>
      <trkpt lat="46.64514" lon="5.91366">
        <ele>750</ele>
        <time>2021-06-11T16:30:15+02:00</time>
      </trkpt>
      <trkpt lat="46.64523" lon="5.91375">
        <ele>751</ele>
        <time>2021-06-11T16:30:20+02:00</time>
      </trkpt>
      <trkpt lat="46.64526" lon="5.91378">
        <ele>751</ele>
        <time>2021-06-11T16:30:25+02:00</time>
      </trkpt>
      <trkpt lat="46.64528" lon="5.91382">
        <ele>751</ele>
        <time>2021-06-11T16:30:30+02:00</time>
      </trkpt>
      <trkpt lat="46.64539" lon="5.91394">
        <ele>751</ele>
        <time>2021-06-11T16:30:35+02:00</time>
      </trkpt>
      <trkpt lat="46.64549" lon="5.91405">
        <ele>751</ele>
        <time>2021-06-11T16:30:40+02:00</time>
      </trkpt>
      <trkpt lat="46.64559" lon="5.91418">
        <ele>751</ele>
        <time>2021-06-11T16:30:45+02:00</time>
      </trkpt>
      <trkpt lat="46.64564" lon="5.91422">
        <ele>751</ele>
        <time>2021-06-11T16:30:50+02:00</time>
      </trkpt>
      <trkpt lat="46.64571" lon="5.91428">
        <ele>751</ele>
        <time>2021-06-11T16:30:55+02:00</time>
      </trkpt>
      <trkpt lat="46.6458" lon="5.91433">
        <ele>751</ele>
        <time>2021-06-11T16:31:00+02:00</time>
      </trkpt>
      <trkpt lat="46.64591" lon="5.91439">
        <ele>753</ele>
        <time>2021-06-11T16:31:05+02:00</time>
      </trkpt>
      <trkpt lat="46.646" lon="5.91444">
        <ele>755</ele>
        <time>2021-06-11T16:31:10+02:00</time>
      </trkpt>
      <trkpt lat="46.64609" lon="5.9145">
        <ele>757</ele>
        <time>2021-06-11T16:31:15+02:00</time>
      </trkpt>
      <trkpt lat="46.6462" lon="5.91457">
        <ele>759</ele>
        <time>2021-06-11T16:31:20+02:00</time>
      </trkpt>
      <trkpt lat="46.64629" lon="5.91466">
        <ele>761</ele>
        <time>2021-06-11T16:31:25+02:00</time>
      </trkpt>
      <trkpt lat="46.64634" lon="5.91471">
        <ele>762</ele>
        <time>2021-06-11T16:31:30+02:00</time>
      </trkpt>
      <trkpt lat="46.64644" lon="5.91491">
        <ele>762</ele>
        <time>2021-06-11T16:31:35+02:00</time>
      </trkpt>
      <trkpt lat="46.64647" lon="5.91496">
        <ele>762</ele>
        <time>2021-06-11T16:31:40+02:00</time>
      </trkpt>
      <trkpt lat="46.64648" lon="5.91499">
        <ele>762</ele>
        <time>2021-06-11T16:31:45+02:00</time>
      </trkpt>
      <trkpt lat="46.64646" lon="5.91515">
        <ele>762</ele>
        <time>2021-06-11T16:31:50+02:00</time>
      </trkpt>
      <trkpt lat="46.64647" lon="5.91527">
        <ele>762</ele>
        <time>2021-06-11T16:31:55+02:00</time>
      </trkpt>
      <trkpt lat="46.64646" lon="5.91542">
        <ele>762</ele>
        <time>2021-06-11T16:32:00+02:00</time>
      </trkpt>
      <trkpt lat="46.64644" lon="5.91555">
        <ele>762</ele>
        <time>2021-06-11T16:32:05+02:00</time>
      </trkpt>
      <trkpt lat="46.64644" lon="5.91571">
        <ele>762</ele>
        <time>2021-06-11T16:32:10+02:00</time>
      </trkpt>
      <trkpt lat="46.64645" lon="5.91582">
        <ele>762</ele>
        <time>2021-06-11T16:32:15+02:00</time>
      </trkpt>
      <trkpt lat="46.64646" lon="5.91587">
        <ele>762</ele>
        <time>2021-06-11T16:32:20+02:00</time>
      </trkpt>
      <trkpt lat="46.64647" lon="5.91596">
        <ele>763</ele>
        <time>2021-06-11T16:32:25+02:00</time>
      </trkpt>
      <trkpt lat="46.64644" lon="5.91612">
        <ele>762</ele>
        <time>2021-06-11T16:32:30+02:00</time>
      </trkpt>
      <trkpt lat="46.64642" lon="5.91624">
        <ele>762</ele>
        <time>2021-06-11T16:32:35+02:00</time>
      </trkpt>
      <trkpt lat="46.64637" lon="5.91637">
        <ele>761</ele>
        <time>2021-06-11T16:32:40+02:00</time>
      </trkpt>
      <trkpt lat="46.64631" lon="5.91652">
        <ele>760</ele>
        <time>2021-06-11T16:32:45+02:00</time>
      </trkpt>
      <trkpt lat="46.64625" lon="5.91666">
        <ele>759</ele>
        <time>2021-06-11T16:32:50+02:00</time>
      </trkpt>
      <trkpt lat="46.64617" lon="5.91675">
        <ele>758</ele>
        <time>2021-06-11T16:32:55+02:00</time>
      </trkpt>
      <trkpt lat="46.64612" lon="5.91681">
        <ele>757</ele>
        <time>2021-06-11T16:33:00+02:00</time>
      </trkpt>
      <trkpt lat="46.64606" lon="5.91694">
        <ele>756</ele>
        <time>2021-06-11T16:33:05+02:00</time>
      </trkpt>
      <trkpt lat="46.64604" lon="5.91696">
        <ele>756</ele>
        <time>2021-06-11T16:33:10+02:00</time>
      </trkpt>
      <trkpt lat="46.64599" lon="5.91706">
        <ele>756</ele>
        <time>2021-06-11T16:33:15+02:00</time>
      </trkpt>
      <trkpt lat="46.64591" lon="5.91717">
        <ele>755</ele>
        <time>2021-06-11T16:33:20+02:00</time>
      </trkpt>
      <trkpt lat="46.64588" lon="5.91726">
        <ele>755</ele>
        <time>2021-06-11T16:33:25+02:00</time>
      </trkpt>
      <trkpt lat="46.64581" lon="5.91737">
        <ele>754</ele>
        <time>2021-06-11T16:33:30+02:00</time>
      </trkpt>
      <trkpt lat="46.64572" lon="5.91749">
        <ele>754</ele>
        <time>2021-06-11T16:33:35+02:00</time>
      </trkpt>
      <trkpt lat="46.64563" lon="5.91767">
        <ele>755</ele>
        <time>2021-06-11T16:33:40+02:00</time>
      </trkpt>
      <trkpt lat="46.64561" lon="5.9177">
        <ele>755</ele>
        <time>2021-06-11T16:33:45+02:00</time>
      </trkpt>
      <trkpt lat="46.64558" lon="5.91773">
        <ele>755</ele>
        <time>2021-06-11T16:33:50+02:00</time>
      </trkpt>
      <trkpt lat="46.6455" lon="5.91788">
        <ele>756</ele>
        <time>2021-06-11T16:33:55+02:00</time>
      </trkpt>
      <trkpt lat="46.64534" lon="5.91804">
        <ele>756</ele>
        <time>2021-06-11T16:34:00+02:00</time>
      </trkpt>
      <trkpt lat="46.64527" lon="5.91821">
        <ele>757</ele>
        <time>2021-06-11T16:34:05+02:00</time>
      </trkpt>
      <trkpt lat="46.64527" lon="5.91823">
        <ele>757</ele>
        <time>2021-06-11T16:34:10+02:00</time>
      </trkpt>
      <trkpt lat="46.64528" lon="5.91832">
        <ele>759</ele>
        <time>2021-06-11T16:34:15+02:00</time>
      </trkpt>
      <trkpt lat="46.64527" lon="5.91836">
        <ele>759</ele>
        <time>2021-06-11T16:34:20+02:00</time>
      </trkpt>
      <trkpt lat="46.64522" lon="5.91863">
        <ele>760</ele>
        <time>2021-06-11T16:34:25+02:00</time>
      </trkpt>
      <trkpt lat="46.64521" lon="5.91865">
        <ele>760</ele>
        <time>2021-06-11T16:34:30+02:00</time>
      </trkpt>
      <trkpt lat="46.64515" lon="5.91876">
        <ele>760</ele>
        <time>2021-06-11T16:34:35+02:00</time>
      </trkpt>
      <trkpt lat="46.64503" lon="5.91899">
        <ele>760</ele>
        <time>2021-06-11T16:34:40+02:00</time>
      </trkpt>
      <trkpt lat="46.64496" lon="5.91912">
        <ele>761</ele>
        <time>2021-06-11T16:34:45+02:00</time>
      </trkpt>
      <trkpt lat="46.64491" lon="5.91922">
        <ele>764</ele>
        <time>2021-06-11T16:34:50+02:00</time>
      </trkpt>
      <trkpt lat="46.64485" lon="5.91932">
        <ele>766</ele>
        <time>2021-06-11T16:34:55+02:00</time>
      </trkpt>
      <trkpt lat="46.64474" lon="5.91947">
        <ele>772</ele>
        <time>2021-06-11T16:35:00+02:00</time>
      </trkpt>
      <trkpt lat="46.64466" lon="5.9195">
        <ele>774</ele>
        <time>2021-06-11T16:35:05+02:00</time>
      </trkpt>
      <trkpt lat="46.64454" lon="5.9195">
        <ele>775</ele>
        <time>2021-06-11T16:35:10+02:00</time>
      </trkpt>
      <trkpt lat="46.64452" lon="5.9195">
        <ele>776</ele>
        <time>2021-06-11T16:35:15+02:00</time>
      </trkpt>
      <trkpt lat="46.64439" lon="5.91948">
        <ele>777</ele>
        <time>2021-06-11T16:35:20+02:00</time>
      </trkpt>
      <trkpt lat="46.64425" lon="5.9194">
        <ele>777</ele>
        <time>2021-06-11T16:35:25+02:00</time>
      </trkpt>
      <trkpt lat="46.64411" lon="5.91931">
        <ele>777</ele>
        <time>2021-06-11T16:35:30+02:00</time>
      </trkpt>
      <trkpt lat="46.64399" lon="5.9192">
        <ele>778</ele>
        <time>2021-06-11T16:35:35+02:00</time>
      </trkpt>
      <trkpt lat="46.64383" lon="5.91909">
        <ele>780</ele>
        <time>2021-06-11T16:35:40+02:00</time>
      </trkpt>
      <trkpt lat="46.64373" lon="5.91901">
        <ele>781</ele>
        <time>2021-06-11T16:35:45+02:00</time>
      </trkpt>
      <trkpt lat="46.64362" lon="5.91893">
        <ele>782</ele>
        <time>2021-06-11T16:35:50+02:00</time>
      </trkpt>
      <trkpt lat="46.64353" lon="5.91886">
        <ele>782</ele>
        <time>2021-06-11T16:35:55+02:00</time>
      </trkpt>
      <trkpt lat="46.6435" lon="5.91883">
        <ele>783</ele>
        <time>2021-06-11T16:36:00+02:00</time>
      </trkpt>
      <trkpt lat="46.64347" lon="5.9188">
        <ele>782</ele>
        <time>2021-06-11T16:36:05+02:00</time>
      </trkpt>
      <trkpt lat="46.64343" lon="5.91877">
        <ele>783</ele>
        <time>2021-06-11T16:36:10+02:00</time>
      </trkpt>
      <trkpt lat="46.64335" lon="5.91871">
        <ele>783</ele>
        <time>2021-06-11T16:36:15+02:00</time>
      </trkpt>
      <trkpt lat="46.64333" lon="5.91869">
        <ele>783</ele>
        <time>2021-06-11T16:36:20+02:00</time>
      </trkpt>
      <trkpt lat="46.64322" lon="5.91862">
        <ele>783</ele>
        <time>2021-06-11T16:36:25+02:00</time>
      </trkpt>
      <trkpt lat="46.6431" lon="5.91855">
        <ele>784</ele>
        <time>2021-06-11T16:36:30+02:00</time>
      </trkpt>
      <trkpt lat="46.64297" lon="5.91852">
        <ele>786</ele>
        <time>2021-06-11T16:36:35+02:00</time>
      </trkpt>
      <trkpt lat="46.64294" lon="5.9185">
        <ele>787</ele>
        <time>2021-06-11T16:36:40+02:00</time>
      </trkpt>
      <trkpt lat="46.64283" lon="5.91845">
        <ele>788</ele>
        <time>2021-06-11T16:36:45+02:00</time>
      </trkpt>
      <trkpt lat="46.64281" lon="5.91841">
        <ele>787</ele>
        <time>2021-06-11T16:36:50+02:00</time>
      </trkpt>
      <trkpt lat="46.64271" lon="5.91823">
        <ele>785</ele>
        <time>2021-06-11T16:36:55+02:00</time>
      </trkpt>
      <trkpt lat="46.64267" lon="5.91817">
        <ele>785</ele>
        <time>2021-06-11T16:37:00+02:00</time>
      </trkpt>
      <trkpt lat="46.64255" lon="5.91804">
        <ele>785</ele>
        <time>2021-06-11T16:37:05+02:00</time>
      </trkpt>
      <trkpt lat="46.64253" lon="5.91798">
        <ele>784</ele>
        <time>2021-06-11T16:37:10+02:00</time>
      </trkpt>
      <trkpt lat="46.64244" lon="5.91786">
        <ele>784</ele>
        <time>2021-06-11T16:37:15+02:00</time>
      </trkpt>
      <trkpt lat="46.64235" lon="5.91775">
        <ele>784</ele>
        <time>2021-06-11T16:37:20+02:00</time>
      </trkpt>
      <trkpt lat="46.6423" lon="5.91768">
        <ele>783</ele>
        <time>2021-06-11T16:37:25+02:00</time>
      </trkpt>
      <trkpt lat="46.6422" lon="5.91755">
        <ele>783</ele>
        <time>2021-06-11T16:37:30+02:00</time>
      </trkpt>
      <trkpt lat="46.64214" lon="5.91744">
        <ele>782</ele>
        <time>2021-06-11T16:37:35+02:00</time>
      </trkpt>
      <trkpt lat="46.64208" lon="5.91731">
        <ele>780</ele>
        <time>2021-06-11T16:37:40+02:00</time>
      </trkpt>
      <trkpt lat="46.64196" lon="5.91713">
        <ele>778</ele>
        <time>2021-06-11T16:37:45+02:00</time>
      </trkpt>
      <trkpt lat="46.6419" lon="5.91706">
        <ele>778</ele>
        <time>2021-06-11T16:37:50+02:00</time>
      </trkpt>
      <trkpt lat="46.64188" lon="5.91705">
        <ele>778</ele>
        <time>2021-06-11T16:37:55+02:00</time>
      </trkpt>
      <trkpt lat="46.64177" lon="5.91696">
        <ele>779</ele>
        <time>2021-06-11T16:38:00+02:00</time>
      </trkpt>
      <trkpt lat="46.64166" lon="5.91684">
        <ele>778</ele>
        <time>2021-06-11T16:38:05+02:00</time>
      </trkpt>
      <trkpt lat="46.64154" lon="5.91671">
        <ele>779</ele>
        <time>2021-06-11T16:38:10+02:00</time>
      </trkpt>
      <trkpt lat="46.64143" lon="5.91661">
        <ele>779</ele>
        <time>2021-06-11T16:38:15+02:00</time>
      </trkpt>
      <trkpt lat="46.64133" lon="5.91649">
        <ele>780</ele>
        <time>2021-06-11T16:38:20+02:00</time>
      </trkpt>
      <trkpt lat="46.64124" lon="5.91642">
        <ele>781</ele>
        <time>2021-06-11T16:38:25+02:00</time>
      </trkpt>
      <trkpt lat="46.64118" lon="5.91637">
        <ele>781</ele>
        <time>2021-06-11T16:38:30+02:00</time>
      </trkpt>
      <trkpt lat="46.64109" lon="5.91633">
        <ele>783</ele>
        <time>2021-06-11T16:38:35+02:00</time>
      </trkpt>
      <trkpt lat="46.64102" lon="5.91622">
        <ele>783</ele>
        <time>2021-06-11T16:38:40+02:00</time>
      </trkpt>
      <trkpt lat="46.64093" lon="5.91609">
        <ele>782</ele>
        <time>2021-06-11T16:38:45+02:00</time>
      </trkpt>
      <trkpt lat="46.64087" lon="5.916">
        <ele>782</ele>
        <time>2021-06-11T16:38:50+02:00</time>
      </trkpt>
      <trkpt lat="46.64081" lon="5.91589">
        <ele>781</ele>
        <time>2021-06-11T16:38:55+02:00</time>
      </trkpt>
      <trkpt lat="46.64079" lon="5.91588">
        <ele>781</ele>
        <time>2021-06-11T16:39:00+02:00</time>
      </trkpt>
      <trkpt lat="46.64064" lon="5.91572">
        <ele>780</ele>
        <time>2021-06-11T16:39:05+02:00</time>
      </trkpt>
      <trkpt lat="46.64063" lon="5.91572">
        <ele>780</ele>
        <time>2021-06-11T16:39:10+02:00</time>
      </trkpt>
      <trkpt lat="46.64047" lon="5.91561">
        <ele>782</ele>
        <time>2021-06-11T16:39:15+02:00</time>
      </trkpt>
      <trkpt lat="46.64039" lon="5.91552">
        <ele>782</ele>
        <time>2021-06-11T16:39:20+02:00</time>
      </trkpt>
      <trkpt lat="46.6403" lon="5.91543">
        <ele>783</ele>
        <time>2021-06-11T16:39:25+02:00</time>
      </trkpt>
      <trkpt lat="46.6402" lon="5.9153">
        <ele>782</ele>
        <time>2021-06-11T16:39:30+02:00</time>
      </trkpt>
      <trkpt lat="46.64007" lon="5.91521">
        <ele>785</ele>
        <time>2021-06-11T16:39:35+02:00</time>
      </trkpt>
      <trkpt lat="46.63991" lon="5.91504">
        <ele>786</ele>
        <time>2021-06-11T16:39:40+02:00</time>
      </trkpt>
      <trkpt lat="46.63977" lon="5.91488">
        <ele>787</ele>
        <time>2021-06-11T16:39:45+02:00</time>
      </trkpt>
      <trkpt lat="46.6397" lon="5.91477">
        <ele>787</ele>
        <time>2021-06-11T16:39:50+02:00</time>
      </trkpt>
      <trkpt lat="46.6396" lon="5.91463">
        <ele>787</ele>
        <time>2021-06-11T16:39:55+02:00</time>
      </trkpt>
      <trkpt lat="46.63948" lon="5.91448">
        <ele>787</ele>
        <time>2021-06-11T16:40:00+02:00</time>
      </trkpt>
      <trkpt lat="46.63941" lon="5.91433">
        <ele>785</ele>
        <time>2021-06-11T16:40:05+02:00</time>
      </trkpt>
      <trkpt lat="46.6393" lon="5.91416">
        <ele>784</ele>
        <time>2021-06-11T16:40:10+02:00</time>
      </trkpt>
      <trkpt lat="46.63921" lon="5.91406">
        <ele>783</ele>
        <time>2021-06-11T16:40:15+02:00</time>
      </trkpt>
      <trkpt lat="46.63916" lon="5.914">
        <ele>783</ele>
        <time>2021-06-11T16:40:20+02:00</time>
      </trkpt>
      <trkpt lat="46.63906" lon="5.91391">
        <ele>783</ele>
        <time>2021-06-11T16:40:25+02:00</time>
      </trkpt>
      <trkpt lat="46.63899" lon="5.91385">
        <ele>783</ele>
        <time>2021-06-11T16:40:30+02:00</time>
      </trkpt>
      <trkpt lat="46.63891" lon="5.91372">
        <ele>782</ele>
        <time>2021-06-11T16:40:35+02:00</time>
      </trkpt>
      <trkpt lat="46.63883" lon="5.91362">
        <ele>782</ele>
        <time>2021-06-11T16:40:40+02:00</time>
      </trkpt>
      <trkpt lat="46.63872" lon="5.91347">
        <ele>781</ele>
        <time>2021-06-11T16:40:45+02:00</time>
      </trkpt>
      <trkpt lat="46.63864" lon="5.91337">
        <ele>781</ele>
        <time>2021-06-11T16:40:50+02:00</time>
      </trkpt>
      <trkpt lat="46.63853" lon="5.91328">
        <ele>782</ele>
        <time>2021-06-11T16:40:55+02:00</time>
      </trkpt>
      <trkpt lat="46.63843" lon="5.9132">
        <ele>784</ele>
        <time>2021-06-11T16:41:00+02:00</time>
      </trkpt>
      <trkpt lat="46.63833" lon="5.91313">
        <ele>785</ele>
        <time>2021-06-11T16:41:05+02:00</time>
      </trkpt>
      <trkpt lat="46.63823" lon="5.91309">
        <ele>785</ele>
        <time>2021-06-11T16:41:10+02:00</time>
      </trkpt>
      <trkpt lat="46.63816" lon="5.91308">
        <ele>785</ele>
        <time>2021-06-11T16:41:15+02:00</time>
      </trkpt>
      <trkpt lat="46.63802" lon="5.91305">
        <ele>785</ele>
        <time>2021-06-11T16:41:20+02:00</time>
      </trkpt>
      <trkpt lat="46.63792" lon="5.91298">
        <ele>784</ele>
        <time>2021-06-11T16:41:25+02:00</time>
      </trkpt>
      <trkpt lat="46.63772" lon="5.91297">
        <ele>785</ele>
        <time>2021-06-11T16:41:30+02:00</time>
      </trkpt>
      <trkpt lat="46.63761" lon="5.91305">
        <ele>787</ele>
        <time>2021-06-11T16:41:35+02:00</time>
      </trkpt>
      <trkpt lat="46.63752" lon="5.91318">
        <ele>788</ele>
        <time>2021-06-11T16:41:40+02:00</time>
      </trkpt>
      <trkpt lat="46.63746" lon="5.91325">
        <ele>789</ele>
        <time>2021-06-11T16:41:45+02:00</time>
      </trkpt>
      <trkpt lat="46.6374" lon="5.91331">
        <ele>790</ele>
        <time>2021-06-11T16:41:50+02:00</time>
      </trkpt>
      <trkpt lat="46.63722" lon="5.91365">
        <ele>793</ele>
        <time>2021-06-11T16:41:55+02:00</time>
      </trkpt>
      <trkpt lat="46.63711" lon="5.91388">
        <ele>794</ele>
        <time>2021-06-11T16:42:00+02:00</time>
      </trkpt>
      <trkpt lat="46.63694" lon="5.91403">
        <ele>794</ele>
        <time>2021-06-11T16:42:05+02:00</time>
      </trkpt>
      <trkpt lat="46.63681" lon="5.91412">
        <ele>794</ele>
        <time>2021-06-11T16:42:10+02:00</time>
      </trkpt>
      <trkpt lat="46.63672" lon="5.91423">
        <ele>793</ele>
        <time>2021-06-11T16:42:15+02:00</time>
      </trkpt>
      <trkpt lat="46.63667" lon="5.91438">
        <ele>793</ele>
        <time>2021-06-11T16:42:20+02:00</time>
      </trkpt>
      <trkpt lat="46.63665" lon="5.91443">
        <ele>792</ele>
        <time>2021-06-11T16:42:25+02:00</time>
      </trkpt>
      <trkpt lat="46.63658" lon="5.91464">
        <ele>791</ele>
        <time>2021-06-11T16:42:30+02:00</time>
      </trkpt>
      <trkpt lat="46.63655" lon="5.91488">
        <ele>791</ele>
        <time>2021-06-11T16:42:35+02:00</time>
      </trkpt>
      <trkpt lat="46.63652" lon="5.91504">
        <ele>791</ele>
        <time>2021-06-11T16:42:40+02:00</time>
      </trkpt>
      <trkpt lat="46.63649" lon="5.91516">
        <ele>791</ele>
        <time>2021-06-11T16:42:45+02:00</time>
      </trkpt>
      <trkpt lat="46.6364" lon="5.91541">
        <ele>791</ele>
        <time>2021-06-11T16:42:50+02:00</time>
      </trkpt>
      <trkpt lat="46.63639" lon="5.91542">
        <ele>791</ele>
        <time>2021-06-11T16:42:55+02:00</time>
      </trkpt>
      <trkpt lat="46.6363" lon="5.91567">
        <ele>792</ele>
        <time>2021-06-11T16:43:00+02:00</time>
      </trkpt>
      <trkpt lat="46.63623" lon="5.91587">
        <ele>793</ele>
        <time>2021-06-11T16:43:05+02:00</time>
      </trkpt>
      <trkpt lat="46.63624" lon="5.91596">
        <ele>793</ele>
        <time>2021-06-11T16:43:10+02:00</time>
      </trkpt>
      <trkpt lat="46.63623" lon="5.91598">
        <ele>794</ele>
        <time>2021-06-11T16:43:15+02:00</time>
      </trkpt>
      <trkpt lat="46.63621" lon="5.91602">
        <ele>794</ele>
        <time>2021-06-11T16:43:20+02:00</time>
      </trkpt>
      <trkpt lat="46.63617" lon="5.91615">
        <ele>795</ele>
        <time>2021-06-11T16:43:25+02:00</time>
      </trkpt>
      <trkpt lat="46.63616" lon="5.91628">
        <ele>796</ele>
        <time>2021-06-11T16:43:30+02:00</time>
      </trkpt>
      <trkpt lat="46.63612" lon="5.91661">
        <ele>798</ele>
        <time>2021-06-11T16:43:35+02:00</time>
      </trkpt>
      <trkpt lat="46.63605" lon="5.91676">
        <ele>799</ele>
        <time>2021-06-11T16:43:40+02:00</time>
      </trkpt>
      <trkpt lat="46.63605" lon="5.91693">
        <ele>800</ele>
        <time>2021-06-11T16:43:45+02:00</time>
      </trkpt>
      <trkpt lat="46.63603" lon="5.91702">
        <ele>800</ele>
        <time>2021-06-11T16:43:50+02:00</time>
      </trkpt>
      <trkpt lat="46.63598" lon="5.91717">
        <ele>801</ele>
        <time>2021-06-11T16:43:55+02:00</time>
      </trkpt>
      <trkpt lat="46.63595" lon="5.91726">
        <ele>802</ele>
        <time>2021-06-11T16:44:00+02:00</time>
      </trkpt>
      <trkpt lat="46.63582" lon="5.9174">
        <ele>803</ele>
        <time>2021-06-11T16:44:05+02:00</time>
      </trkpt>
      <trkpt lat="46.63563" lon="5.91749">
        <ele>803</ele>
        <time>2021-06-11T16:44:10+02:00</time>
      </trkpt>
      <trkpt lat="46.63553" lon="5.91756">
        <ele>803</ele>
        <time>2021-06-11T16:44:15+02:00</time>
      </trkpt>
      <trkpt lat="46.63547" lon="5.91759">
        <ele>803</ele>
        <time>2021-06-11T16:44:20+02:00</time>
      </trkpt>
      <trkpt lat="46.63531" lon="5.91768">
        <ele>803</ele>
        <time>2021-06-11T16:44:25+02:00</time>
      </trkpt>
      <trkpt lat="46.6352" lon="5.91773">
        <ele>803</ele>
        <time>2021-06-11T16:44:30+02:00</time>
      </trkpt>
      <trkpt lat="46.63509" lon="5.91782">
        <ele>802</ele>
        <time>2021-06-11T16:44:35+02:00</time>
      </trkpt>
      <trkpt lat="46.63505" lon="5.91786">
        <ele>802</ele>
        <time>2021-06-11T16:44:40+02:00</time>
      </trkpt>
      <trkpt lat="46.63497" lon="5.91796">
        <ele>801</ele>
        <time>2021-06-11T16:44:45+02:00</time>
      </trkpt>
      <trkpt lat="46.6349" lon="5.91811">
        <ele>800</ele>
        <time>2021-06-11T16:44:50+02:00</time>
      </trkpt>
      <trkpt lat="46.63482" lon="5.9183">
        <ele>799</ele>
        <time>2021-06-11T16:44:55+02:00</time>
      </trkpt>
      <trkpt lat="46.63475" lon="5.91844">
        <ele>798</ele>
        <time>2021-06-11T16:45:00+02:00</time>
      </trkpt>
      <trkpt lat="46.63466" lon="5.91862">
        <ele>797</ele>
        <time>2021-06-11T16:45:05+02:00</time>
      </trkpt>
      <trkpt lat="46.63462" lon="5.91881">
        <ele>796</ele>
        <time>2021-06-11T16:45:10+02:00</time>
      </trkpt>
      <trkpt lat="46.63458" lon="5.91897">
        <ele>795</ele>
        <time>2021-06-11T16:45:15+02:00</time>
      </trkpt>
      <trkpt lat="46.63452" lon="5.91923">
        <ele>794</ele>
        <time>2021-06-11T16:45:20+02:00</time>
      </trkpt>
      <trkpt lat="46.63436" lon="5.91937">
        <ele>792</ele>
        <time>2021-06-11T16:45:25+02:00</time>
      </trkpt>
      <trkpt lat="46.63425" lon="5.9194">
        <ele>790</ele>
        <time>2021-06-11T16:45:30+02:00</time>
      </trkpt>
      <trkpt lat="46.6341" lon="5.91942">
        <ele>788</ele>
        <time>2021-06-11T16:45:35+02:00</time>
      </trkpt>
      <trkpt lat="46.63396" lon="5.91946">
        <ele>787</ele>
        <time>2021-06-11T16:45:40+02:00</time>
      </trkpt>
      <trkpt lat="46.63395" lon="5.91944">
        <ele>787</ele>
        <time>2021-06-11T16:45:45+02:00</time>
      </trkpt>
      <trkpt lat="46.6338" lon="5.91939">
        <ele>786</ele>
        <time>2021-06-11T16:45:50+02:00</time>
      </trkpt>
      <trkpt lat="46.63375" lon="5.91938">
        <ele>785</ele>
        <time>2021-06-11T16:45:55+02:00</time>
      </trkpt>
      <trkpt lat="46.63372" lon="5.91938">
        <ele>785</ele>
        <time>2021-06-11T16:46:00+02:00</time>
      </trkpt>
      <trkpt lat="46.63369" lon="5.91938">
        <ele>785</ele>
        <time>2021-06-11T16:46:05+02:00</time>
      </trkpt>
      <trkpt lat="46.63368" lon="5.9194">
        <ele>785</ele>
        <time>2021-06-11T16:46:10+02:00</time>
      </trkpt>
      <trkpt lat="46.63354" lon="5.9195">
        <ele>785</ele>
        <time>2021-06-11T16:46:15+02:00</time>
      </trkpt>
      <trkpt lat="46.63354" lon="5.91951">
        <ele>785</ele>
        <time>2021-06-11T16:46:20+02:00</time>
      </trkpt>
      <trkpt lat="46.63354" lon="5.91951">
        <ele>785</ele>
        <time>2021-06-11T16:46:25+02:00</time>
      </trkpt>
      <trkpt lat="46.63354" lon="5.91951">
        <ele>785</ele>
        <time>2021-06-11T16:46:30+02:00</time>
      </trkpt>
      <trkpt lat="46.63354" lon="5.91951">
        <ele>785</ele>
        <time>2021-06-11T16:46:35+02:00</time>
      </trkpt>
      <trkpt lat="46.63354" lon="5.91951">
        <ele>785</ele>
        <time>2021-06-11T16:46:40+02:00</time>
      </trkpt>
    </trkseg>
  </trk>
</gpx>